UAL1736 KDEN-PHOG
Flight info
| Callsign | UAL1736 |
|---|---|
| Flight time | 6h 52m |
| Altitude | 36000 |
| Route | ZIMMR4 CHNGY EKR OGD LCU KU66I/N0479F380 KO66G FOT C1415 VESPA 40N130W 35N140W 30N148W AUNTI R463 APACK LNDHY1 |
| Aircraft | B772/H-SDE2E3FGHIJ5LORVWXY/LB1D1 |
Departure
| Time | 2026-05-04 20:04 |
|---|---|
| Airport | Denver International Airport (KDEN) |
Arrival
| Time | 2026-05-05 02:56 |
|---|---|
| Airport | Kahului International Airport (PHOG) |
| Time | Latitude | Longitude | Altitude | Speed | Heading |
|---|---|---|---|---|---|
| 2026-05-04 19:37 | 39.85805 | -104.67460 | 5370 ft | 0 kts | 360° |
| 2026-05-04 19:51 | 39.85802 | -104.67460 | 5370 ft | 3 kts | 360° |
| 2026-05-04 19:51 | 39.85776 | -104.67460 | 5366 ft | 4 kts | 0° |
| 2026-05-04 19:51 | 39.85749 | -104.67461 | 5366 ft | 4 kts | 0° |
| 2026-05-04 19:51 | 39.85722 | -104.67461 | 5367 ft | 4 kts | 1° |
| 2026-05-04 19:52 | 39.85696 | -104.67462 | 5367 ft | 2 kts | 1° |
| 2026-05-04 19:52 | 39.85695 | -104.67462 | 5367 ft | 0 kts | 1° |
| 2026-05-04 19:57 | 39.85719 | -104.67470 | 5368 ft | 9 kts | 336° |
| 2026-05-04 19:57 | 39.85732 | -104.67537 | 5367 ft | 9 kts | 248° |
| 2026-05-04 19:58 | 39.85700 | -104.67610 | 5368 ft | 13 kts | 240° |
| 2026-05-04 19:58 | 39.85667 | -104.67765 | 5369 ft | 20 kts | 270° |
| 2026-05-04 19:58 | 39.85669 | -104.67943 | 5370 ft | 20 kts | 269° |
| 2026-05-04 19:58 | 39.85669 | -104.68120 | 5369 ft | 20 kts | 268° |
| 2026-05-04 19:59 | 39.85690 | -104.68295 | 5367 ft | 20 kts | 269° |
| 2026-05-04 19:59 | 39.85684 | -104.68461 | 5368 ft | 16 kts | 256° |
| 2026-05-04 19:59 | 39.85589 | -104.68517 | 5367 ft | 16 kts | 184° |
| 2026-05-04 19:59 | 39.85464 | -104.68515 | 5368 ft | 24 kts | 179° |
| 2026-05-04 20:00 | 39.85277 | -104.68517 | 5368 ft | 23 kts | 182° |
| 2026-05-04 20:00 | 39.85194 | -104.68662 | 5368 ft | 23 kts | 269° |
| 2026-05-04 20:00 | 39.85197 | -104.68871 | 5368 ft | 23 kts | 271° |
| 2026-05-04 20:00 | 39.85195 | -104.69079 | 5368 ft | 23 kts | 268° |
| 2026-05-04 20:01 | 39.85197 | -104.69288 | 5367 ft | 23 kts | 271° |
| 2026-05-04 20:01 | 39.85202 | -104.69473 | 5367 ft | 18 kts | 271° |
| 2026-05-04 20:01 | 39.85202 | -104.69574 | 5367 ft | 10 kts | 270° |
| 2026-05-04 20:01 | 39.85227 | -104.69648 | 5367 ft | 10 kts | 336° |
| 2026-05-04 20:02 | 39.85278 | -104.69655 | 5368 ft | 0 kts | 359° |
| 2026-05-04 20:03 | 39.85349 | -104.69657 | 5368 ft | 37 kts | 359° |
| 2026-05-04 20:03 | 39.85891 | -104.69653 | 5369 ft | 117 kts | 1° |
| 2026-05-04 20:03 | 39.86954 | -104.69644 | 5376 ft | 185 kts | 1° |
| 2026-05-04 20:04 | 39.88284 | -104.69592 | 6227 ft | 188 kts | 356° |
| 2026-05-04 20:04 | 39.89591 | -104.69550 | 7198 ft | 192 kts | 358° |
| 2026-05-04 20:04 | 39.90944 | -104.69731 | 7629 ft | 204 kts | 335° |
| 2026-05-04 20:04 | 39.92075 | -104.70873 | 7872 ft | 213 kts | 308° |
| 2026-05-04 20:05 | 39.92922 | -104.72486 | 8256 ft | 222 kts | 304° |
| 2026-05-04 20:05 | 39.93754 | -104.74231 | 8675 ft | 229 kts | 290° |
| 2026-05-04 20:05 | 39.93996 | -104.76354 | 8796 ft | 253 kts | 261° |
| 2026-05-04 20:05 | 39.93690 | -104.78638 | 9164 ft | 264 kts | 265° |
| 2026-05-04 20:06 | 39.93553 | -104.81119 | 9549 ft | 280 kts | 268° |
| 2026-05-04 20:06 | 39.93472 | -104.83647 | 9947 ft | 277 kts | 268° |
| 2026-05-04 20:06 | 39.93384 | -104.86154 | 9939 ft | 280 kts | 268° |
| 2026-05-04 20:06 | 39.93281 | -104.88706 | 9994 ft | 284 kts | 268° |
| 2026-05-04 20:07 | 39.93190 | -104.91360 | 10266 ft | 305 kts | 270° |
| 2026-05-04 20:07 | 39.93227 | -104.94246 | 10388 ft | 332 kts | 271° |
| 2026-05-04 20:07 | 39.93319 | -104.97369 | 10599 ft | 357 kts | 272° |
| 2026-05-04 20:07 | 39.93421 | -105.00637 | 11443 ft | 364 kts | 272° |
| 2026-05-04 20:08 | 39.93514 | -105.03946 | 12493 ft | 365 kts | 272° |
| 2026-05-04 20:08 | 39.93599 | -105.07280 | 13372 ft | 371 kts | 272° |
| 2026-05-04 20:08 | 39.93678 | -105.10646 | 14355 ft | 371 kts | 272° |
| 2026-05-04 20:08 | 39.93754 | -105.14016 | 15193 ft | 375 kts | 271° |
| 2026-05-04 20:09 | 39.93829 | -105.17431 | 15978 ft | 378 kts | 271° |
| 2026-05-04 20:09 | 39.93903 | -105.20894 | 16632 ft | 386 kts | 271° |
| 2026-05-04 20:09 | 39.94018 | -105.24405 | 17290 ft | 390 kts | 274° |
| 2026-05-04 20:09 | 39.94292 | -105.27939 | 17986 ft | 395 kts | 276° |
| 2026-05-04 20:10 | 39.94618 | -105.31509 | 18630 ft | 399 kts | 275° |
| 2026-05-04 20:10 | 39.94927 | -105.35110 | 19279 ft | 400 kts | 274° |
| 2026-05-04 20:10 | 39.95212 | -105.38727 | 19867 ft | 404 kts | 274° |
| 2026-05-04 20:10 | 39.95499 | -105.42385 | 20441 ft | 407 kts | 274° |
| 2026-05-04 20:11 | 39.95789 | -105.46072 | 21045 ft | 410 kts | 274° |
| 2026-05-04 20:11 | 39.96080 | -105.49781 | 21702 ft | 412 kts | 274° |
| 2026-05-04 20:11 | 39.96369 | -105.53509 | 22381 ft | 415 kts | 274° |
| 2026-05-04 20:11 | 39.96660 | -105.57261 | 23009 ft | 418 kts | 274° |
| 2026-05-04 20:12 | 39.96950 | -105.61044 | 23604 ft | 420 kts | 274° |
| 2026-05-04 20:12 | 39.97236 | -105.64839 | 24189 ft | 421 kts | 274° |
| 2026-05-04 20:12 | 39.97510 | -105.68625 | 24917 ft | 418 kts | 273° |
| 2026-05-04 20:12 | 39.97713 | -105.72401 | 25520 ft | 418 kts | 272° |
| 2026-05-04 20:13 | 39.97881 | -105.76195 | 26024 ft | 421 kts | 272° |
| 2026-05-04 20:13 | 39.98040 | -105.80011 | 26536 ft | 423 kts | 272° |
| 2026-05-04 20:13 | 39.98209 | -105.83844 | 27051 ft | 424 kts | 272° |
| 2026-05-04 20:13 | 39.98387 | -105.87685 | 27534 ft | 425 kts | 272° |
| 2026-05-04 20:14 | 39.98571 | -105.91536 | 27979 ft | 426 kts | 273° |
| 2026-05-04 20:14 | 39.98759 | -105.95400 | 28399 ft | 428 kts | 273° |
| 2026-05-04 20:14 | 39.98948 | -105.99278 | 28778 ft | 430 kts | 273° |
| 2026-05-04 20:14 | 39.99138 | -106.03169 | 29234 ft | 430 kts | 273° |
| 2026-05-04 20:15 | 39.99327 | -106.07060 | 29604 ft | 431 kts | 273° |
| 2026-05-04 20:15 | 39.99512 | -106.10911 | 29920 ft | 432 kts | 273° |
| 2026-05-04 20:15 | 39.99698 | -106.14825 | 30201 ft | 433 kts | 273° |
| 2026-05-04 20:15 | 39.99884 | -106.18746 | 30493 ft | 433 kts | 273° |
| 2026-05-04 20:16 | 40.00068 | -106.22655 | 30859 ft | 430 kts | 272° |
| 2026-05-04 20:16 | 40.00249 | -106.26530 | 31309 ft | 426 kts | 272° |
| 2026-05-04 20:16 | 40.00428 | -106.30371 | 31747 ft | 423 kts | 272° |
| 2026-05-04 20:16 | 40.00606 | -106.34187 | 32163 ft | 420 kts | 272° |
| 2026-05-04 20:17 | 40.00783 | -106.37980 | 32494 ft | 419 kts | 272° |
| 2026-05-04 20:17 | 40.00957 | -106.41760 | 32833 ft | 417 kts | 272° |
| 2026-05-04 20:17 | 40.01124 | -106.45531 | 33156 ft | 415 kts | 272° |
| 2026-05-04 20:17 | 40.01287 | -106.49285 | 33498 ft | 414 kts | 272° |
| 2026-05-04 20:18 | 40.01441 | -106.53028 | 33862 ft | 412 kts | 271° |
| 2026-05-04 20:18 | 40.01591 | -106.56747 | 34165 ft | 410 kts | 271° |
| 2026-05-04 20:18 | 40.01742 | -106.60452 | 34390 ft | 409 kts | 271° |
| 2026-05-04 20:18 | 40.01894 | -106.64155 | 34599 ft | 409 kts | 271° |
| 2026-05-04 20:19 | 40.02049 | -106.67865 | 34787 ft | 410 kts | 271° |
| 2026-05-04 20:19 | 40.02203 | -106.71573 | 35022 ft | 409 kts | 271° |
| 2026-05-04 20:19 | 40.02356 | -106.75261 | 35331 ft | 406 kts | 271° |
| 2026-05-04 20:19 | 40.02509 | -106.78937 | 35603 ft | 405 kts | 271° |
| 2026-05-04 20:20 | 40.02660 | -106.82606 | 35735 ft | 406 kts | 271° |
| 2026-05-04 20:20 | 40.02959 | -106.89966 | 35821 ft | 405 kts | 271° |
| 2026-05-04 20:21 | 40.03253 | -106.97297 | 35830 ft | 404 kts | 270° |
| 2026-05-04 20:21 | 40.03684 | -107.08269 | 35851 ft | 404 kts | 270° |
| 2026-05-04 20:22 | 40.03919 | -107.14347 | 35850 ft | 403 kts | 270° |
| 2026-05-04 20:22 | 40.04197 | -107.21654 | 35868 ft | 403 kts | 270° |
| 2026-05-04 20:23 | 40.04471 | -107.28980 | 35874 ft | 406 kts | 270° |
| 2026-05-04 20:23 | 40.04742 | -107.36339 | 35892 ft | 406 kts | 270° |
| 2026-05-04 20:24 | 40.05012 | -107.43722 | 35874 ft | 408 kts | 270° |
| 2026-05-04 20:24 | 40.05277 | -107.51141 | 35886 ft | 410 kts | 270° |
| 2026-05-04 20:25 | 40.05538 | -107.58576 | 35884 ft | 410 kts | 270° |
| 2026-05-04 20:25 | 40.05797 | -107.66001 | 35890 ft | 409 kts | 270° |
| 2026-05-04 20:26 | 40.06053 | -107.73420 | 35879 ft | 409 kts | 270° |
| 2026-05-04 20:26 | 40.06307 | -107.80843 | 35872 ft | 409 kts | 270° |
| 2026-05-04 20:27 | 40.06425 | -107.84549 | 36002 ft | 409 kts | 270° |
| 2026-05-04 20:27 | 40.06647 | -107.88241 | 35988 ft | 409 kts | 275° |
| 2026-05-04 20:27 | 40.07797 | -107.95524 | 36006 ft | 411 kts | 280° |
| 2026-05-04 20:28 | 40.08622 | -107.99112 | 35872 ft | 414 kts | 285° |
| 2026-05-04 20:28 | 40.09646 | -108.02629 | 35878 ft | 415 kts | 285° |
| 2026-05-04 20:28 | 40.11737 | -108.09655 | 35879 ft | 415 kts | 286° |
| 2026-05-04 20:29 | 40.13842 | -108.16695 | 35878 ft | 416 kts | 286° |
| 2026-05-04 20:29 | 40.15944 | -108.23746 | 35873 ft | 417 kts | 286° |
| 2026-05-04 20:30 | 40.18043 | -108.30817 | 35867 ft | 417 kts | 286° |
| 2026-05-04 20:30 | 40.20137 | -108.37900 | 35870 ft | 417 kts | 286° |
| 2026-05-04 20:31 | 40.22211 | -108.44932 | 35852 ft | 418 kts | 285° |
| 2026-05-04 20:31 | 40.24298 | -108.52035 | 35861 ft | 419 kts | 285° |
| 2026-05-04 20:32 | 40.26387 | -108.59157 | 35871 ft | 419 kts | 285° |
| 2026-05-04 20:32 | 40.28474 | -108.66292 | 35860 ft | 420 kts | 285° |
| 2026-05-04 20:33 | 40.30558 | -108.73434 | 35845 ft | 420 kts | 285° |
| 2026-05-04 20:33 | 40.32636 | -108.80577 | 35829 ft | 419 kts | 285° |
| 2026-05-04 20:34 | 40.34707 | -108.87720 | 35834 ft | 419 kts | 285° |
| 2026-05-04 20:34 | 40.36776 | -108.94874 | 35821 ft | 420 kts | 285° |
| 2026-05-04 20:35 | 40.38843 | -109.02036 | 35815 ft | 420 kts | 285° |
| 2026-05-04 20:35 | 40.40904 | -109.09204 | 35827 ft | 420 kts | 285° |
| 2026-05-04 20:36 | 40.42962 | -109.16374 | 35827 ft | 420 kts | 285° |
| 2026-05-04 20:36 | 40.45015 | -109.23547 | 35851 ft | 420 kts | 284° |
| 2026-05-04 20:37 | 40.47062 | -109.30721 | 35872 ft | 419 kts | 285° |
| 2026-05-04 20:37 | 40.49102 | -109.37894 | 35892 ft | 419 kts | 285° |
| 2026-05-04 20:38 | 40.51138 | -109.45066 | 35910 ft | 419 kts | 285° |
| 2026-05-04 20:38 | 40.53166 | -109.52240 | 35915 ft | 419 kts | 285° |
| 2026-05-04 20:39 | 40.55192 | -109.59424 | 35899 ft | 419 kts | 285° |
| 2026-05-04 20:39 | 40.57216 | -109.66612 | 35873 ft | 419 kts | 285° |
| 2026-05-04 20:40 | 40.59235 | -109.73808 | 35754 ft | 420 kts | 285° |
| 2026-05-04 20:40 | 40.61250 | -109.81007 | 35796 ft | 419 kts | 285° |
| 2026-05-04 20:41 | 40.63262 | -109.88224 | 35772 ft | 420 kts | 284° |
| 2026-05-04 20:41 | 40.65261 | -109.95408 | 35832 ft | 421 kts | 285° |
| 2026-05-04 20:42 | 40.67276 | -110.02671 | 35795 ft | 423 kts | 284° |
| 2026-05-04 20:42 | 40.69286 | -110.09936 | 35810 ft | 422 kts | 284° |
| 2026-05-04 20:43 | 40.71291 | -110.17202 | 35822 ft | 422 kts | 284° |
| 2026-05-04 20:43 | 40.73295 | -110.24490 | 35838 ft | 422 kts | 284° |
| 2026-05-04 20:44 | 40.75292 | -110.31771 | 35839 ft | 422 kts | 284° |
| 2026-05-04 20:44 | 40.77283 | -110.39056 | 35856 ft | 422 kts | 284° |
| 2026-05-04 20:45 | 40.79274 | -110.46359 | 35841 ft | 423 kts | 284° |
| 2026-05-04 20:45 | 40.81268 | -110.53678 | 35834 ft | 425 kts | 284° |
| 2026-05-04 20:46 | 40.83259 | -110.61030 | 35839 ft | 426 kts | 284° |
| 2026-05-04 20:46 | 40.85251 | -110.68404 | 35826 ft | 427 kts | 284° |
| 2026-05-04 20:47 | 40.87245 | -110.75800 | 35823 ft | 428 kts | 284° |
| 2026-05-04 20:47 | 40.89224 | -110.83160 | 35807 ft | 428 kts | 284° |
| 2026-05-04 20:48 | 40.91210 | -110.90574 | 35800 ft | 428 kts | 284° |
| 2026-05-04 20:48 | 40.93193 | -110.97997 | 35812 ft | 428 kts | 284° |
| 2026-05-04 20:49 | 40.95172 | -111.05427 | 35817 ft | 428 kts | 284° |
| 2026-05-04 20:49 | 40.97147 | -111.12862 | 35806 ft | 429 kts | 284° |
| 2026-05-04 20:50 | 40.99118 | -111.20308 | 35789 ft | 429 kts | 283° |
| 2026-05-04 20:50 | 41.01089 | -111.27777 | 35821 ft | 430 kts | 284° |
| 2026-05-04 20:51 | 41.03059 | -111.35265 | 35771 ft | 431 kts | 284° |
| 2026-05-04 20:51 | 41.05032 | -111.42780 | 35759 ft | 432 kts | 284° |
| 2026-05-04 20:52 | 41.07001 | -111.50305 | 35754 ft | 433 kts | 284° |
| 2026-05-04 20:52 | 41.08970 | -111.57850 | 35768 ft | 433 kts | 284° |
| 2026-05-04 20:53 | 41.10929 | -111.65383 | 35804 ft | 432 kts | 284° |
| 2026-05-04 20:53 | 41.12885 | -111.72924 | 35851 ft | 433 kts | 284° |
| 2026-05-04 20:54 | 41.14845 | -111.80504 | 35851 ft | 436 kts | 284° |
| 2026-05-04 20:54 | 41.16812 | -111.88122 | 35870 ft | 437 kts | 284° |
| 2026-05-04 20:55 | 41.18788 | -111.95771 | 35859 ft | 439 kts | 284° |
| 2026-05-04 20:55 | 41.20759 | -112.03445 | 35859 ft | 439 kts | 284° |
| 2026-05-04 20:56 | 41.22442 | -112.11202 | 35863 ft | 435 kts | 277° |
| 2026-05-04 20:56 | 41.23218 | -112.19114 | 35830 ft | 431 kts | 272° |
| 2026-05-04 20:57 | 41.23849 | -112.27086 | 35800 ft | 438 kts | 273° |
| 2026-05-04 20:57 | 41.24520 | -112.35181 | 35772 ft | 442 kts | 273° |
| 2026-05-04 20:58 | 41.25209 | -112.43306 | 35737 ft | 443 kts | 274° |
| 2026-05-04 20:58 | 41.25896 | -112.51435 | 35718 ft | 443 kts | 273° |
| 2026-05-04 20:59 | 41.26576 | -112.59567 | 35730 ft | 442 kts | 273° |
| 2026-05-04 20:59 | 41.27248 | -112.67674 | 35730 ft | 441 kts | 273° |
| 2026-05-04 21:00 | 41.27912 | -112.75769 | 35740 ft | 440 kts | 273° |
| 2026-05-04 21:00 | 41.28569 | -112.83848 | 35735 ft | 440 kts | 272° |
| 2026-05-04 21:01 | 41.29221 | -112.91933 | 35745 ft | 442 kts | 273° |
| 2026-05-04 21:01 | 41.29874 | -113.00127 | 35752 ft | 449 kts | 273° |
| 2026-05-04 21:02 | 41.30525 | -113.08355 | 35736 ft | 451 kts | 273° |
| 2026-05-04 21:02 | 41.31165 | -113.16657 | 35741 ft | 452 kts | 272° |
| 2026-05-04 21:03 | 41.31811 | -113.24972 | 35744 ft | 452 kts | 273° |
| 2026-05-04 21:03 | 41.32456 | -113.33302 | 35745 ft | 453 kts | 273° |
| 2026-05-04 21:04 | 41.33095 | -113.41628 | 35750 ft | 452 kts | 272° |
| 2026-05-04 21:04 | 41.33728 | -113.49959 | 35752 ft | 453 kts | 272° |
| 2026-05-04 21:05 | 41.34358 | -113.58299 | 35764 ft | 453 kts | 273° |
| 2026-05-04 21:05 | 41.34986 | -113.66665 | 35765 ft | 456 kts | 273° |
| 2026-05-04 21:06 | 41.35620 | -113.75077 | 35776 ft | 458 kts | 273° |
| 2026-05-04 21:06 | 41.36158 | -113.83548 | 35780 ft | 460 kts | 269° |
| 2026-05-04 21:07 | 41.35789 | -113.92023 | 35766 ft | 458 kts | 262° |
| 2026-05-04 21:07 | 41.35113 | -114.00489 | 35776 ft | 461 kts | 262° |
| 2026-05-04 21:08 | 41.34473 | -114.08940 | 35771 ft | 463 kts | 262° |
| 2026-05-04 21:08 | 41.33853 | -114.17481 | 35764 ft | 464 kts | 262° |
| 2026-05-04 21:09 | 41.33238 | -114.26028 | 35766 ft | 464 kts | 262° |
| 2026-05-04 21:09 | 41.32618 | -114.34578 | 35771 ft | 464 kts | 262° |
| 2026-05-04 21:10 | 41.31990 | -114.43121 | 35770 ft | 464 kts | 262° |
| 2026-05-04 21:10 | 41.31353 | -114.51656 | 35772 ft | 464 kts | 262° |
| 2026-05-04 21:11 | 41.30815 | -114.58810 | 35774 ft | 464 kts | 262° |
| 2026-05-04 21:11 | 41.30173 | -114.67284 | 35771 ft | 464 kts | 262° |
| 2026-05-04 21:12 | 41.29515 | -114.75846 | 35775 ft | 467 kts | 262° |
| 2026-05-04 21:12 | 41.28850 | -114.84455 | 35779 ft | 469 kts | 262° |
| 2026-05-04 21:13 | 41.28176 | -114.93096 | 35780 ft | 471 kts | 262° |
| 2026-05-04 21:13 | 41.27494 | -115.01769 | 35776 ft | 472 kts | 262° |
| 2026-05-04 21:14 | 41.26801 | -115.10464 | 35773 ft | 474 kts | 262° |
| 2026-05-04 21:14 | 41.26101 | -115.19178 | 35771 ft | 474 kts | 262° |
| 2026-05-04 21:15 | 41.25393 | -115.27901 | 35766 ft | 475 kts | 262° |
| 2026-05-04 21:15 | 41.24679 | -115.36621 | 35767 ft | 475 kts | 262° |
| 2026-05-04 21:16 | 41.23958 | -115.45345 | 35768 ft | 475 kts | 262° |
| 2026-05-04 21:16 | 41.23230 | -115.54070 | 35773 ft | 475 kts | 262° |
| 2026-05-04 21:17 | 41.22495 | -115.62787 | 35773 ft | 475 kts | 262° |
| 2026-05-04 21:17 | 41.21754 | -115.71503 | 35774 ft | 475 kts | 261° |
| 2026-05-04 21:18 | 41.21005 | -115.80229 | 35778 ft | 475 kts | 261° |
| 2026-05-04 21:18 | 41.20250 | -115.88952 | 35783 ft | 476 kts | 261° |
| 2026-05-04 21:19 | 41.19488 | -115.97693 | 35776 ft | 479 kts | 262° |
| 2026-05-04 21:19 | 41.18704 | -116.06547 | 35789 ft | 486 kts | 262° |
| 2026-05-04 21:20 | 41.17910 | -116.15483 | 35782 ft | 488 kts | 261° |
| 2026-05-04 21:20 | 41.17109 | -116.24436 | 35775 ft | 489 kts | 262° |
| 2026-05-04 21:21 | 41.16297 | -116.33411 | 35768 ft | 490 kts | 261° |
| 2026-05-04 21:21 | 41.15476 | -116.42405 | 35761 ft | 492 kts | 262° |
| 2026-05-04 21:22 | 41.14647 | -116.51411 | 35762 ft | 492 kts | 262° |
| 2026-05-04 21:22 | 41.13811 | -116.60414 | 35760 ft | 493 kts | 262° |
| 2026-05-04 21:23 | 41.12966 | -116.69436 | 35749 ft | 493 kts | 262° |
| 2026-05-04 21:23 | 41.12114 | -116.78463 | 35746 ft | 493 kts | 262° |
| 2026-05-04 21:24 | 41.11254 | -116.87490 | 35748 ft | 494 kts | 262° |
| 2026-05-04 21:24 | 41.10392 | -116.96467 | 35743 ft | 494 kts | 262° |
| 2026-05-04 21:25 | 41.09517 | -117.05503 | 35729 ft | 494 kts | 262° |
| 2026-05-04 21:25 | 41.08635 | -117.14540 | 35733 ft | 494 kts | 261° |
| 2026-05-04 21:26 | 41.07744 | -117.23588 | 35727 ft | 496 kts | 262° |
| 2026-05-04 21:26 | 41.06844 | -117.32660 | 35738 ft | 498 kts | 262° |
| 2026-05-04 21:27 | 41.05936 | -117.41765 | 35743 ft | 499 kts | 262° |
| 2026-05-04 21:27 | 41.05017 | -117.50903 | 35762 ft | 501 kts | 262° |
| 2026-05-04 21:28 | 41.04088 | -117.60059 | 35768 ft | 502 kts | 262° |
| 2026-05-04 21:28 | 41.03153 | -117.69228 | 35795 ft | 502 kts | 262° |
| 2026-05-04 21:29 | 41.02213 | -117.78398 | 35802 ft | 503 kts | 262° |
| 2026-05-04 21:29 | 41.01274 | -117.87572 | 35792 ft | 502 kts | 262° |
| 2026-05-04 21:30 | 41.00319 | -117.96732 | 35783 ft | 502 kts | 262° |
| 2026-05-04 21:30 | 40.99913 | -118.05919 | 35787 ft | 500 kts | 270° |
| 2026-05-04 21:31 | 41.00045 | -118.19736 | 35733 ft | 501 kts | 270° |
| 2026-05-04 21:32 | 41.00125 | -118.28958 | 35729 ft | 501 kts | 270° |
| 2026-05-04 21:32 | 41.00182 | -118.38193 | 35738 ft | 502 kts | 270° |
| 2026-05-04 21:33 | 41.00227 | -118.47390 | 35738 ft | 504 kts | 270° |
| 2026-05-04 21:33 | 41.00265 | -118.56740 | 35730 ft | 505 kts | 270° |
| 2026-05-04 21:34 | 41.00297 | -118.65986 | 35728 ft | 506 kts | 270° |
| 2026-05-04 21:34 | 41.00321 | -118.75307 | 35748 ft | 507 kts | 270° |
| 2026-05-04 21:35 | 41.00339 | -118.84646 | 35739 ft | 508 kts | 270° |
| 2026-05-04 21:35 | 41.00348 | -118.93997 | 35755 ft | 508 kts | 270° |
| 2026-05-04 21:36 | 41.00350 | -119.03359 | 35746 ft | 509 kts | 270° |
| 2026-05-04 21:36 | 41.00345 | -119.12734 | 35749 ft | 510 kts | 270° |
| 2026-05-04 21:37 | 41.00333 | -119.22118 | 35766 ft | 510 kts | 270° |
| 2026-05-04 21:37 | 41.00313 | -119.31518 | 35770 ft | 511 kts | 270° |
| 2026-05-04 21:38 | 41.00286 | -119.40922 | 35784 ft | 511 kts | 270° |
| 2026-05-04 21:38 | 41.00252 | -119.50331 | 35796 ft | 511 kts | 270° |
| 2026-05-04 21:39 | 41.00211 | -119.59748 | 35784 ft | 512 kts | 270° |
| 2026-05-04 21:39 | 41.00164 | -119.69162 | 35794 ft | 511 kts | 270° |
| 2026-05-04 21:40 | 41.00113 | -119.78572 | 35808 ft | 511 kts | 270° |
| 2026-05-04 21:40 | 41.00060 | -119.87987 | 35801 ft | 511 kts | 270° |
| 2026-05-04 21:41 | 40.99996 | -119.97404 | 35827 ft | 512 kts | 270° |
| 2026-05-04 21:41 | 40.99661 | -120.06822 | 35809 ft | 513 kts | 266° |
| 2026-05-04 21:42 | 40.99020 | -120.16232 | 35810 ft | 514 kts | 265° |
| 2026-05-04 21:42 | 40.98375 | -120.25647 | 35833 ft | 514 kts | 265° |
| 2026-05-04 21:43 | 40.97773 | -120.35067 | 35820 ft | 514 kts | 265° |
| 2026-05-04 21:43 | 40.97185 | -120.44499 | 35832 ft | 514 kts | 266° |
| 2026-05-04 21:44 | 40.96593 | -120.53928 | 35839 ft | 514 kts | 266° |
| 2026-05-04 21:44 | 40.95994 | -120.63296 | 35857 ft | 515 kts | 265° |
| 2026-05-04 21:45 | 40.95380 | -120.72734 | 35845 ft | 515 kts | 265° |
| 2026-05-04 21:45 | 40.94758 | -120.82183 | 35871 ft | 516 kts | 265° |
| 2026-05-04 21:46 | 40.94128 | -120.91634 | 35873 ft | 516 kts | 265° |
| 2026-05-04 21:46 | 40.93490 | -121.01086 | 35874 ft | 516 kts | 265° |
| 2026-05-04 21:47 | 40.92844 | -121.10539 | 35885 ft | 516 kts | 265° |
| 2026-05-04 21:47 | 40.92190 | -121.19994 | 35881 ft | 516 kts | 265° |
| 2026-05-04 21:48 | 40.91528 | -121.29451 | 35877 ft | 517 kts | 265° |
| 2026-05-04 21:48 | 40.90857 | -121.38920 | 35896 ft | 517 kts | 265° |
| 2026-05-04 21:49 | 40.90179 | -121.48391 | 35912 ft | 518 kts | 265° |
| 2026-05-04 21:49 | 40.89492 | -121.57871 | 35915 ft | 518 kts | 265° |
| 2026-05-04 21:50 | 40.88797 | -121.67356 | 35930 ft | 519 kts | 265° |
| 2026-05-04 21:50 | 40.88093 | -121.76845 | 35957 ft | 519 kts | 265° |
| 2026-05-04 21:51 | 40.87381 | -121.86338 | 35948 ft | 519 kts | 265° |
| 2026-05-04 21:51 | 40.86662 | -121.95830 | 35992 ft | 520 kts | 265° |
| 2026-05-04 21:52 | 40.85933 | -122.05338 | 35995 ft | 521 kts | 265° |
| 2026-05-04 21:52 | 40.85194 | -122.14865 | 36004 ft | 522 kts | 265° |
| 2026-05-04 21:53 | 40.84452 | -122.24348 | 36014 ft | 523 kts | 265° |
| 2026-05-04 21:53 | 40.83696 | -122.33907 | 36001 ft | 524 kts | 265° |
| 2026-05-04 21:54 | 40.82931 | -122.43469 | 36015 ft | 524 kts | 265° |
| 2026-05-04 21:54 | 40.82158 | -122.53042 | 36004 ft | 525 kts | 265° |
| 2026-05-04 21:55 | 40.81376 | -122.62614 | 35983 ft | 524 kts | 265° |
| 2026-05-04 21:55 | 40.80586 | -122.72183 | 35980 ft | 524 kts | 265° |
| 2026-05-04 21:56 | 40.79787 | -122.81747 | 35974 ft | 525 kts | 265° |
| 2026-05-04 21:56 | 40.78980 | -122.91331 | 35963 ft | 526 kts | 265° |
| 2026-05-04 21:57 | 40.78164 | -123.00930 | 35965 ft | 527 kts | 265° |
| 2026-05-04 21:57 | 40.77340 | -123.10535 | 35973 ft | 527 kts | 265° |
| 2026-05-04 21:58 | 40.76507 | -123.20152 | 35989 ft | 528 kts | 265° |
| 2026-05-04 21:58 | 40.75664 | -123.29785 | 35995 ft | 529 kts | 265° |
| 2026-05-04 21:59 | 40.74956 | -123.37798 | 36002 ft | 530 kts | 265° |
| 2026-05-04 21:59 | 40.74097 | -123.47450 | 36016 ft | 530 kts | 264° |
| 2026-05-04 22:00 | 40.73231 | -123.57080 | 36033 ft | 528 kts | 264° |
| 2026-05-04 22:00 | 40.72360 | -123.66679 | 36043 ft | 527 kts | 264° |
| 2026-05-04 22:01 | 40.71483 | -123.76268 | 36054 ft | 527 kts | 264° |
| 2026-05-04 22:01 | 40.70599 | -123.85858 | 36064 ft | 527 kts | 264° |
| 2026-05-04 22:02 | 40.69709 | -123.95450 | 36071 ft | 528 kts | 264° |
| 2026-05-04 22:02 | 40.68815 | -124.05051 | 36070 ft | 528 kts | 264° |
| 2026-05-04 22:03 | 40.67928 | -124.14593 | 36074 ft | 529 kts | 264° |
| 2026-05-04 22:03 | 40.67063 | -124.24207 | 36064 ft | 527 kts | 267° |
| 2026-05-04 22:04 | 40.66907 | -124.33836 | 36075 ft | 526 kts | 271° |
| 2026-05-04 22:04 | 40.66873 | -124.43475 | 36060 ft | 526 kts | 272° |
| 2026-05-04 22:05 | 40.66828 | -124.53122 | 36070 ft | 527 kts | 271° |
| 2026-05-04 22:05 | 40.66761 | -124.62789 | 36072 ft | 528 kts | 271° |
| 2026-05-04 22:06 | 40.66678 | -124.72469 | 36068 ft | 529 kts | 271° |
| 2026-05-04 22:06 | 40.66586 | -124.82160 | 36069 ft | 530 kts | 271° |
| 2026-05-04 22:07 | 40.66487 | -124.91864 | 36064 ft | 530 kts | 271° |
| 2026-05-04 22:07 | 40.66381 | -125.01565 | 36063 ft | 530 kts | 271° |
| 2026-05-04 22:08 | 40.66266 | -125.11265 | 36060 ft | 530 kts | 271° |
| 2026-05-04 22:08 | 40.66143 | -125.20967 | 36054 ft | 530 kts | 271° |
| 2026-05-04 22:09 | 40.66012 | -125.30668 | 36055 ft | 530 kts | 271° |
| 2026-05-04 22:09 | 40.65874 | -125.40372 | 36069 ft | 530 kts | 271° |
| 2026-05-04 22:10 | 40.65728 | -125.50009 | 36056 ft | 530 kts | 271° |
| 2026-05-04 22:10 | 40.65573 | -125.59702 | 36061 ft | 529 kts | 271° |
| 2026-05-04 22:11 | 40.65409 | -125.69396 | 36066 ft | 530 kts | 271° |
| 2026-05-04 22:11 | 40.65239 | -125.79103 | 36060 ft | 530 kts | 270° |
| 2026-05-04 22:12 | 40.65060 | -125.88816 | 36058 ft | 531 kts | 270° |
| 2026-05-04 22:12 | 40.64873 | -125.98539 | 36058 ft | 531 kts | 270° |
| 2026-05-04 22:13 | 40.64677 | -126.08261 | 36057 ft | 531 kts | 270° |
| 2026-05-04 22:13 | 40.64474 | -126.17980 | 36059 ft | 531 kts | 270° |
| 2026-05-04 22:14 | 40.64263 | -126.27692 | 36056 ft | 530 kts | 270° |
| 2026-05-04 22:14 | 40.64045 | -126.37394 | 36057 ft | 530 kts | 270° |
| 2026-05-04 22:15 | 40.63819 | -126.47091 | 36054 ft | 530 kts | 270° |
| 2026-05-04 22:15 | 40.63587 | -126.56784 | 36059 ft | 530 kts | 270° |
| 2026-05-04 22:16 | 40.63348 | -126.66471 | 36057 ft | 529 kts | 270° |
| 2026-05-04 22:16 | 40.63104 | -126.76158 | 36057 ft | 529 kts | 270° |
| 2026-05-04 22:16 | 40.62965 | -126.80873 | 36891 ft | 505 kts | 269° |
| 2026-05-04 22:17 | 40.62823 | -126.85557 | 36533 ft | 519 kts | 270° |
| 2026-05-04 22:17 | 40.62715 | -126.90349 | 36353 ft | 527 kts | 270° |
| 2026-05-04 22:17 | 40.62600 | -126.95197 | 36228 ft | 532 kts | 269° |
| 2026-05-04 22:18 | 40.61658 | -127.04867 | 36113 ft | 533 kts | 257° |
| 2026-05-04 22:18 | 40.59747 | -127.14245 | 36060 ft | 530 kts | 255° |
| 2026-05-04 22:19 | 40.57817 | -127.23602 | 36064 ft | 530 kts | 255° |
| 2026-05-04 22:19 | 40.55944 | -127.32993 | 36064 ft | 531 kts | 256° |
| 2026-05-04 22:20 | 40.54093 | -127.42405 | 36065 ft | 532 kts | 256° |
| 2026-05-04 22:20 | 40.52233 | -127.51835 | 36063 ft | 533 kts | 256° |
| 2026-05-04 22:21 | 40.50359 | -127.61265 | 36066 ft | 533 kts | 255° |
| 2026-05-04 22:21 | 40.48475 | -127.70684 | 36064 ft | 533 kts | 255° |
| 2026-05-04 22:22 | 40.46597 | -127.80026 | 36057 ft | 532 kts | 255° |
| 2026-05-04 22:22 | 40.44700 | -127.89423 | 36064 ft | 532 kts | 255° |
| 2026-05-04 22:23 | 40.42797 | -127.98813 | 36069 ft | 532 kts | 255° |
| 2026-05-04 22:23 | 40.40886 | -128.08197 | 36067 ft | 532 kts | 255° |
| 2026-05-04 22:24 | 40.38967 | -128.17579 | 36071 ft | 532 kts | 255° |
| 2026-05-04 22:24 | 40.37041 | -128.26951 | 36074 ft | 532 kts | 255° |
| 2026-05-04 22:25 | 40.35108 | -128.36315 | 36071 ft | 532 kts | 255° |
| 2026-05-04 22:25 | 40.33168 | -128.45675 | 36074 ft | 532 kts | 255° |
| 2026-05-04 22:26 | 40.31221 | -128.55025 | 36072 ft | 532 kts | 255° |
| 2026-05-04 22:26 | 40.29267 | -128.64363 | 36076 ft | 531 kts | 255° |
| 2026-05-04 22:27 | 40.27309 | -128.73686 | 36077 ft | 531 kts | 255° |
| 2026-05-04 22:27 | 40.25343 | -128.83003 | 36084 ft | 531 kts | 254° |
| 2026-05-04 22:28 | 40.23372 | -128.92304 | 36076 ft | 530 kts | 254° |
| 2026-05-04 22:28 | 40.21397 | -129.01584 | 36092 ft | 529 kts | 254° |
| 2026-05-04 22:29 | 40.19414 | -129.10859 | 36079 ft | 530 kts | 254° |
| 2026-05-04 22:29 | 40.17427 | -129.20123 | 36085 ft | 529 kts | 254° |
| 2026-05-04 22:30 | 40.15434 | -129.29369 | 36089 ft | 528 kts | 254° |
| 2026-05-04 22:30 | 40.13437 | -129.38602 | 36092 ft | 528 kts | 254° |
| 2026-05-04 22:31 | 40.11434 | -129.47822 | 36094 ft | 527 kts | 254° |
| 2026-05-04 22:31 | 40.09429 | -129.57021 | 36090 ft | 526 kts | 254° |
| 2026-05-04 22:32 | 40.07433 | -129.66145 | 36090 ft | 526 kts | 254° |
| 2026-05-04 22:32 | 40.05420 | -129.75318 | 36094 ft | 525 kts | 254° |
| 2026-05-04 22:33 | 40.03413 | -129.84475 | 36100 ft | 524 kts | 254° |
| 2026-05-04 22:33 | 40.01396 | -129.93613 | 36089 ft | 524 kts | 253° |
| 2026-05-04 22:34 | 39.98922 | -130.02547 | 36094 ft | 525 kts | 243° |
| 2026-05-04 22:34 | 39.95415 | -130.10832 | 36098 ft | 522 kts | 238° |
| 2026-05-04 22:35 | 39.91784 | -130.19027 | 36109 ft | 523 kts | 238° |
| 2026-05-04 22:35 | 39.88192 | -130.27269 | 36107 ft | 524 kts | 239° |
| 2026-05-04 22:36 | 39.84627 | -130.35540 | 36106 ft | 524 kts | 239° |
| 2026-05-04 22:36 | 39.81069 | -130.43800 | 36114 ft | 523 kts | 239° |
| 2026-05-04 22:37 | 39.77505 | -130.52042 | 36109 ft | 522 kts | 239° |
| 2026-05-04 22:37 | 39.73945 | -130.60242 | 36111 ft | 520 kts | 239° |
| 2026-05-04 22:38 | 39.70387 | -130.68415 | 36117 ft | 519 kts | 239° |
| 2026-05-04 22:38 | 39.66831 | -130.76559 | 36124 ft | 518 kts | 239° |
| 2026-05-04 22:39 | 39.63300 | -130.84627 | 36124 ft | 517 kts | 239° |
| 2026-05-04 22:39 | 39.59749 | -130.92723 | 36121 ft | 516 kts | 239° |
| 2026-05-04 22:40 | 39.56192 | -131.00809 | 36127 ft | 516 kts | 239° |
| 2026-05-04 22:40 | 39.52632 | -131.08881 | 36128 ft | 516 kts | 239° |
| 2026-05-04 22:41 | 39.49064 | -131.16950 | 36126 ft | 517 kts | 239° |
| 2026-05-04 22:41 | 39.45488 | -131.25019 | 36132 ft | 516 kts | 239° |
| 2026-05-04 22:42 | 39.41910 | -131.33070 | 36132 ft | 516 kts | 239° |
| 2026-05-04 22:42 | 39.38330 | -131.41103 | 36132 ft | 516 kts | 239° |
| 2026-05-04 22:43 | 39.34747 | -131.49121 | 36147 ft | 515 kts | 239° |
| 2026-05-04 22:43 | 39.31167 | -131.57116 | 36132 ft | 514 kts | 239° |
| 2026-05-04 22:44 | 39.27587 | -131.65089 | 36137 ft | 513 kts | 239° |
| 2026-05-04 22:44 | 39.24007 | -131.73039 | 36148 ft | 512 kts | 239° |
| 2026-05-04 22:45 | 39.20431 | -131.80966 | 36146 ft | 511 kts | 239° |
| 2026-05-04 22:45 | 39.15060 | -131.92826 | 36148 ft | 510 kts | 239° |
| 2026-05-04 22:46 | 39.11506 | -132.00653 | 36140 ft | 509 kts | 239° |
| 2026-05-04 22:46 | 39.07926 | -132.08518 | 36158 ft | 509 kts | 239° |
| 2026-05-04 22:47 | 39.04343 | -132.16365 | 36151 ft | 508 kts | 239° |
| 2026-05-04 22:47 | 39.00763 | -132.24192 | 36157 ft | 507 kts | 239° |
| 2026-05-04 22:48 | 38.97179 | -132.32004 | 36154 ft | 507 kts | 239° |
| 2026-05-04 22:48 | 38.93593 | -132.39803 | 36155 ft | 506 kts | 239° |
| 2026-05-04 22:49 | 38.90012 | -132.47572 | 36157 ft | 505 kts | 239° |
| 2026-05-04 22:49 | 38.86428 | -132.55331 | 36156 ft | 505 kts | 239° |
| 2026-05-04 22:50 | 38.83448 | -132.61762 | 36153 ft | 504 kts | 239° |
| 2026-05-04 22:50 | 38.79866 | -132.69481 | 36159 ft | 503 kts | 239° |
| 2026-05-04 22:51 | 38.76281 | -132.77187 | 36161 ft | 503 kts | 239° |
| 2026-05-04 22:51 | 38.72694 | -132.84876 | 36167 ft | 502 kts | 239° |
| 2026-05-04 22:52 | 38.69110 | -132.92545 | 36164 ft | 502 kts | 239° |
| 2026-05-04 22:52 | 38.65524 | -133.00198 | 36167 ft | 501 kts | 239° |
| 2026-05-04 22:53 | 38.61932 | -133.07831 | 36163 ft | 500 kts | 239° |
| 2026-05-04 22:53 | 38.58337 | -133.15432 | 36169 ft | 499 kts | 239° |
| 2026-05-04 22:54 | 38.54752 | -133.23018 | 36175 ft | 499 kts | 239° |
| 2026-05-04 22:54 | 38.51167 | -133.30601 | 36180 ft | 499 kts | 239° |
| 2026-05-04 22:55 | 38.47577 | -133.38175 | 36181 ft | 499 kts | 239° |
| 2026-05-04 22:55 | 38.43978 | -133.45748 | 36178 ft | 499 kts | 239° |
| 2026-05-04 22:56 | 38.40376 | -133.53310 | 36180 ft | 498 kts | 239° |
| 2026-05-04 22:56 | 38.36773 | -133.60854 | 36184 ft | 498 kts | 239° |
| 2026-05-04 22:57 | 38.33169 | -133.68382 | 36169 ft | 498 kts | 239° |
| 2026-05-04 22:57 | 38.29591 | -133.75840 | 36180 ft | 496 kts | 239° |
| 2026-05-04 22:58 | 38.25989 | -133.83330 | 36189 ft | 496 kts | 239° |
| 2026-05-04 22:58 | 38.22386 | -133.90804 | 36183 ft | 495 kts | 240° |
| 2026-05-04 22:59 | 38.18783 | -133.98262 | 36194 ft | 495 kts | 240° |
| 2026-05-04 22:59 | 38.15176 | -134.05712 | 36195 ft | 495 kts | 240° |
| 2026-05-04 23:00 | 38.11566 | -134.13148 | 36186 ft | 495 kts | 240° |
| 2026-05-04 23:00 | 38.07953 | -134.20576 | 36203 ft | 494 kts | 240° |
| 2026-05-04 23:01 | 38.04337 | -134.27995 | 36204 ft | 494 kts | 240° |
| 2026-05-04 23:01 | 38.00713 | -134.35408 | 36196 ft | 494 kts | 240° |
| 2026-05-04 23:02 | 37.97094 | -134.42799 | 36204 ft | 493 kts | 240° |
| 2026-05-04 23:02 | 37.93470 | -134.50181 | 36207 ft | 493 kts | 240° |
| 2026-05-04 23:03 | 37.89846 | -134.57546 | 36204 ft | 492 kts | 240° |
| 2026-05-04 23:03 | 37.86220 | -134.64900 | 36208 ft | 492 kts | 240° |
| 2026-05-04 23:04 | 37.82593 | -134.72238 | 36211 ft | 492 kts | 240° |
| 2026-05-04 23:04 | 37.78965 | -134.79562 | 36210 ft | 491 kts | 241° |
| 2026-05-04 23:05 | 37.75337 | -134.86870 | 36214 ft | 491 kts | 241° |
| 2026-05-04 23:05 | 37.71705 | -134.94171 | 36196 ft | 491 kts | 241° |
| 2026-05-04 23:06 | 37.68074 | -135.01451 | 36220 ft | 489 kts | 241° |
| 2026-05-04 23:06 | 37.64446 | -135.08713 | 36219 ft | 489 kts | 241° |
| 2026-05-04 23:07 | 37.60817 | -135.15957 | 36204 ft | 488 kts | 242° |
| 2026-05-04 23:07 | 37.57217 | -135.23128 | 36221 ft | 487 kts | 242° |
| 2026-05-04 23:08 | 37.53596 | -135.30327 | 36223 ft | 486 kts | 242° |
| 2026-05-04 23:08 | 37.49974 | -135.37512 | 36222 ft | 486 kts | 242° |
| 2026-05-04 23:09 | 37.46349 | -135.44687 | 36226 ft | 486 kts | 242° |
| 2026-05-04 23:09 | 37.42717 | -135.51861 | 36227 ft | 486 kts | 241° |
| 2026-05-04 23:10 | 37.39081 | -135.59027 | 36223 ft | 485 kts | 242° |
| 2026-05-04 23:10 | 37.35449 | -135.66170 | 36231 ft | 484 kts | 242° |
| 2026-05-04 23:11 | 37.31818 | -135.73294 | 36231 ft | 484 kts | 242° |
| 2026-05-04 23:11 | 37.28190 | -135.80399 | 36227 ft | 483 kts | 242° |
| 2026-05-04 23:12 | 37.24567 | -135.87479 | 36234 ft | 482 kts | 242° |
| 2026-05-04 23:12 | 37.20943 | -135.94544 | 36233 ft | 481 kts | 242° |
| 2026-05-04 23:13 | 37.17324 | -136.01586 | 36231 ft | 480 kts | 241° |
| 2026-05-04 23:13 | 37.13708 | -136.08606 | 36240 ft | 479 kts | 241° |
| 2026-05-04 23:14 | 37.10092 | -136.15611 | 36216 ft | 478 kts | 241° |
| 2026-05-04 23:14 | 37.06486 | -136.22587 | 36240 ft | 476 kts | 241° |
| 2026-05-04 23:15 | 37.02890 | -136.29523 | 36235 ft | 474 kts | 241° |
| 2026-05-04 23:15 | 36.99300 | -136.36436 | 36234 ft | 473 kts | 240° |
| 2026-05-04 23:16 | 36.95717 | -136.43321 | 36249 ft | 472 kts | 240° |
| 2026-05-04 23:16 | 36.92161 | -136.50140 | 36252 ft | 471 kts | 240° |
| 2026-05-04 23:17 | 36.88579 | -136.56996 | 36245 ft | 471 kts | 240° |
| 2026-05-04 23:17 | 36.84996 | -136.63839 | 36253 ft | 470 kts | 240° |
| 2026-05-04 23:18 | 36.81413 | -136.70670 | 36254 ft | 470 kts | 240° |
| 2026-05-04 23:18 | 36.77827 | -136.77490 | 36250 ft | 469 kts | 239° |
| 2026-05-04 23:19 | 36.74246 | -136.84289 | 36254 ft | 468 kts | 239° |
| 2026-05-04 23:19 | 36.70665 | -136.91072 | 36261 ft | 468 kts | 239° |
| 2026-05-04 23:20 | 36.67090 | -136.97832 | 36258 ft | 467 kts | 239° |
| 2026-05-04 23:20 | 36.63518 | -137.04571 | 36265 ft | 465 kts | 239° |
| 2026-05-04 23:21 | 36.59950 | -137.11289 | 36268 ft | 465 kts | 239° |
| 2026-05-04 23:21 | 36.56384 | -137.17993 | 36272 ft | 464 kts | 239° |
| 2026-05-04 23:22 | 36.52814 | -137.24690 | 36272 ft | 464 kts | 239° |
| 2026-05-04 23:22 | 36.49244 | -137.31374 | 36268 ft | 464 kts | 239° |
| 2026-05-04 23:23 | 36.45668 | -137.38054 | 36261 ft | 464 kts | 239° |
| 2026-05-04 23:23 | 36.42089 | -137.44730 | 36260 ft | 464 kts | 239° |
| 2026-05-04 23:24 | 36.38528 | -137.51358 | 36265 ft | 464 kts | 238° |
| 2026-05-04 23:24 | 36.34918 | -137.58064 | 36275 ft | 464 kts | 238° |
| 2026-05-04 23:25 | 36.31330 | -137.64714 | 36267 ft | 463 kts | 238° |
| 2026-05-04 23:25 | 36.27770 | -137.71300 | 36269 ft | 463 kts | 238° |
| 2026-05-04 23:26 | 36.24189 | -137.77914 | 36274 ft | 462 kts | 238° |
| 2026-05-04 23:26 | 36.20605 | -137.84519 | 36270 ft | 462 kts | 237° |
| 2026-05-04 23:27 | 36.17023 | -137.91109 | 36273 ft | 461 kts | 237° |
| 2026-05-04 23:27 | 36.13441 | -137.97687 | 36277 ft | 461 kts | 237° |
| 2026-05-04 23:28 | 36.09857 | -138.04255 | 36273 ft | 460 kts | 237° |
| 2026-05-04 23:28 | 36.06273 | -138.10810 | 36278 ft | 460 kts | 237° |
| 2026-05-04 23:29 | 36.02688 | -138.17355 | 36281 ft | 460 kts | 237° |
| 2026-05-04 23:29 | 35.99100 | -138.23893 | 36282 ft | 460 kts | 236° |
| 2026-05-04 23:30 | 35.95513 | -138.30416 | 36280 ft | 459 kts | 237° |
| 2026-05-04 23:30 | 35.91929 | -138.36923 | 36281 ft | 458 kts | 237° |
| 2026-05-04 23:31 | 35.88343 | -138.43420 | 36282 ft | 458 kts | 236° |
| 2026-05-04 23:31 | 35.84757 | -138.49904 | 36287 ft | 457 kts | 236° |
| 2026-05-04 23:32 | 35.81173 | -138.56375 | 36282 ft | 457 kts | 236° |
| 2026-05-04 23:32 | 35.77615 | -138.62786 | 36287 ft | 456 kts | 236° |
| 2026-05-04 23:33 | 35.74032 | -138.69231 | 36289 ft | 456 kts | 236° |
| 2026-05-04 23:33 | 35.70448 | -138.75665 | 36288 ft | 456 kts | 236° |
| 2026-05-04 23:34 | 35.66862 | -138.82091 | 36285 ft | 456 kts | 236° |
| 2026-05-04 23:34 | 35.63274 | -138.88509 | 36292 ft | 455 kts | 236° |
| 2026-05-04 23:35 | 35.59686 | -138.94915 | 36290 ft | 455 kts | 236° |
| 2026-05-04 23:35 | 35.56092 | -139.01320 | 36291 ft | 455 kts | 236° |
| 2026-05-04 23:36 | 35.52498 | -139.07714 | 36290 ft | 455 kts | 236° |
| 2026-05-04 23:36 | 35.48905 | -139.14095 | 36291 ft | 454 kts | 235° |
| 2026-05-04 23:37 | 35.45308 | -139.20470 | 36290 ft | 454 kts | 235° |
| 2026-05-04 23:37 | 35.41713 | -139.26831 | 36294 ft | 454 kts | 235° |
| 2026-05-04 23:38 | 35.38114 | -139.33188 | 36297 ft | 454 kts | 235° |
| 2026-05-04 23:38 | 35.34514 | -139.39536 | 36294 ft | 454 kts | 235° |
| 2026-05-04 23:39 | 35.31521 | -139.44806 | 36289 ft | 453 kts | 235° |
| 2026-05-04 23:39 | 35.27919 | -139.51138 | 36294 ft | 453 kts | 235° |
| 2026-05-04 23:40 | 35.24315 | -139.57462 | 36294 ft | 453 kts | 234° |
| 2026-05-04 23:40 | 35.20712 | -139.63776 | 36290 ft | 452 kts | 235° |
| 2026-05-04 23:41 | 35.17110 | -139.70078 | 36296 ft | 452 kts | 235° |
| 2026-05-04 23:41 | 35.13508 | -139.76373 | 36300 ft | 452 kts | 234° |
| 2026-05-04 23:42 | 35.09906 | -139.82660 | 36285 ft | 451 kts | 235° |
| 2026-05-04 23:42 | 35.06313 | -139.88931 | 36291 ft | 450 kts | 235° |
| 2026-05-04 23:43 | 35.02731 | -139.95192 | 36295 ft | 450 kts | 234° |
| 2026-05-04 23:43 | 34.99132 | -140.01424 | 36294 ft | 449 kts | 234° |
| 2026-05-04 23:44 | 34.95564 | -140.07674 | 36297 ft | 449 kts | 235° |
| 2026-05-04 23:44 | 34.92028 | -140.13943 | 36298 ft | 449 kts | 235° |
| 2026-05-04 23:45 | 34.88498 | -140.20224 | 36305 ft | 449 kts | 236° |
| 2026-05-04 23:45 | 34.84968 | -140.26498 | 36288 ft | 449 kts | 236° |
| 2026-05-04 23:46 | 34.81433 | -140.32765 | 36297 ft | 449 kts | 236° |
| 2026-05-04 23:46 | 34.77899 | -140.39020 | 36298 ft | 449 kts | 236° |
| 2026-05-04 23:47 | 34.74383 | -140.45228 | 36292 ft | 448 kts | 236° |
| 2026-05-04 23:47 | 34.70845 | -140.51467 | 36300 ft | 448 kts | 236° |
| 2026-05-04 23:48 | 34.67283 | -140.57734 | 36301 ft | 448 kts | 236° |
| 2026-05-04 23:48 | 34.63766 | -140.63915 | 36304 ft | 448 kts | 236° |
| 2026-05-04 23:49 | 34.60223 | -140.70128 | 36303 ft | 447 kts | 237° |
| 2026-05-04 23:49 | 34.56676 | -140.76338 | 36301 ft | 448 kts | 237° |
| 2026-05-04 23:50 | 34.53126 | -140.82542 | 36302 ft | 448 kts | 237° |
| 2026-05-04 23:50 | 34.49571 | -140.88745 | 36309 ft | 448 kts | 237° |
| 2026-05-04 23:51 | 34.46014 | -140.94940 | 36303 ft | 448 kts | 237° |
| 2026-05-04 23:51 | 34.42456 | -141.01127 | 36307 ft | 447 kts | 237° |
| 2026-05-04 23:52 | 34.38896 | -141.07306 | 36296 ft | 447 kts | 237° |
| 2026-05-04 23:52 | 34.35337 | -141.13471 | 36307 ft | 447 kts | 237° |
| 2026-05-04 23:53 | 34.31776 | -141.19631 | 36305 ft | 447 kts | 237° |
| 2026-05-04 23:53 | 34.28211 | -141.25787 | 36304 ft | 447 kts | 237° |
| 2026-05-04 23:54 | 34.24666 | -141.31899 | 36304 ft | 447 kts | 237° |
| 2026-05-04 23:54 | 34.21096 | -141.38043 | 36308 ft | 447 kts | 237° |
| 2026-05-04 23:55 | 34.17525 | -141.44177 | 36303 ft | 446 kts | 237° |
| 2026-05-04 23:56 | 34.12171 | -141.53355 | 36301 ft | 445 kts | 237° |
| 2026-05-04 23:56 | 34.08607 | -141.59452 | 36316 ft | 445 kts | 237° |
| 2026-05-04 23:57 | 34.05041 | -141.65543 | 36302 ft | 444 kts | 237° |
| 2026-05-04 23:57 | 34.01475 | -141.71623 | 36293 ft | 444 kts | 237° |
| 2026-05-04 23:58 | 33.97954 | -141.77722 | 36307 ft | 443 kts | 239° |
| 2026-05-04 23:58 | 33.94450 | -141.83835 | 36308 ft | 444 kts | 238° |
| 2026-05-04 23:59 | 33.90886 | -141.89902 | 36304 ft | 444 kts | 238° |
| 2026-05-04 23:59 | 33.87304 | -141.95947 | 36299 ft | 443 kts | 238° |
| 2026-05-05 00:00 | 33.83722 | -142.01987 | 36305 ft | 443 kts | 238° |
| 2026-05-05 00:00 | 33.80144 | -142.08021 | 36309 ft | 443 kts | 238° |
| 2026-05-05 00:01 | 33.76562 | -142.14056 | 36307 ft | 443 kts | 238° |
| 2026-05-05 00:01 | 33.73003 | -142.20044 | 36301 ft | 443 kts | 238° |
| 2026-05-05 00:02 | 33.69418 | -142.26067 | 36302 ft | 443 kts | 238° |
| 2026-05-05 00:02 | 33.65826 | -142.32090 | 36306 ft | 443 kts | 238° |
| 2026-05-05 00:03 | 33.62233 | -142.38104 | 36288 ft | 443 kts | 238° |
| 2026-05-05 00:03 | 33.58638 | -142.44113 | 36299 ft | 443 kts | 238° |
| 2026-05-05 00:04 | 33.55041 | -142.50116 | 36299 ft | 443 kts | 238° |
| 2026-05-05 00:04 | 33.51440 | -142.56114 | 36305 ft | 443 kts | 238° |
| 2026-05-05 00:05 | 33.47838 | -142.62105 | 36284 ft | 443 kts | 238° |
| 2026-05-05 00:05 | 33.44235 | -142.68087 | 36296 ft | 443 kts | 238° |
| 2026-05-05 00:06 | 33.40630 | -142.74064 | 36294 ft | 443 kts | 238° |
| 2026-05-05 00:06 | 33.37021 | -142.80037 | 36303 ft | 443 kts | 238° |
| 2026-05-05 00:07 | 33.33407 | -142.86009 | 36290 ft | 443 kts | 238° |
| 2026-05-05 00:07 | 33.29792 | -142.91973 | 36293 ft | 443 kts | 238° |
| 2026-05-05 00:08 | 33.26172 | -142.97934 | 36295 ft | 443 kts | 238° |
| 2026-05-05 00:08 | 33.22551 | -143.03888 | 36283 ft | 443 kts | 238° |
| 2026-05-05 00:09 | 33.18926 | -143.09840 | 36291 ft | 443 kts | 238° |
| 2026-05-05 00:09 | 33.15296 | -143.15791 | 36295 ft | 443 kts | 238° |
| 2026-05-05 00:10 | 33.11685 | -143.21699 | 36289 ft | 444 kts | 238° |
| 2026-05-05 00:10 | 33.08022 | -143.27684 | 36288 ft | 444 kts | 238° |
| 2026-05-05 00:11 | 33.04405 | -143.33585 | 36295 ft | 444 kts | 238° |
| 2026-05-05 00:11 | 33.00761 | -143.39519 | 36290 ft | 444 kts | 238° |
| 2026-05-05 00:12 | 32.97113 | -143.45451 | 36282 ft | 444 kts | 238° |
| 2026-05-05 00:12 | 32.93461 | -143.51379 | 36291 ft | 444 kts | 237° |
| 2026-05-05 00:13 | 32.89807 | -143.57303 | 36291 ft | 444 kts | 237° |
| 2026-05-05 00:13 | 32.86151 | -143.63218 | 36292 ft | 444 kts | 237° |
| 2026-05-05 00:14 | 32.82492 | -143.69131 | 36286 ft | 444 kts | 237° |
| 2026-05-05 00:14 | 32.78831 | -143.75037 | 36281 ft | 444 kts | 237° |
| 2026-05-05 00:15 | 32.75164 | -143.80942 | 36288 ft | 444 kts | 237° |
| 2026-05-05 00:15 | 32.71493 | -143.86846 | 36300 ft | 444 kts | 237° |
| 2026-05-05 00:16 | 32.67818 | -143.92747 | 36283 ft | 444 kts | 237° |
| 2026-05-05 00:16 | 32.64139 | -143.98644 | 36289 ft | 445 kts | 237° |
| 2026-05-05 00:17 | 32.60454 | -144.04542 | 36289 ft | 445 kts | 237° |
| 2026-05-05 00:17 | 32.56763 | -144.10440 | 36290 ft | 445 kts | 237° |
| 2026-05-05 00:18 | 32.53069 | -144.16335 | 36289 ft | 445 kts | 237° |
| 2026-05-05 00:18 | 32.49370 | -144.22226 | 36277 ft | 446 kts | 237° |
| 2026-05-05 00:19 | 32.45693 | -144.28075 | 36289 ft | 446 kts | 237° |
| 2026-05-05 00:19 | 32.41982 | -144.33968 | 36283 ft | 447 kts | 237° |
| 2026-05-05 00:20 | 32.38264 | -144.39864 | 36270 ft | 447 kts | 237° |
| 2026-05-05 00:20 | 32.34543 | -144.45754 | 36283 ft | 447 kts | 237° |
| 2026-05-05 00:21 | 32.30816 | -144.51645 | 36282 ft | 447 kts | 237° |
| 2026-05-05 00:21 | 32.27085 | -144.57534 | 36281 ft | 448 kts | 237° |
| 2026-05-05 00:22 | 32.23343 | -144.63429 | 36266 ft | 448 kts | 237° |
| 2026-05-05 00:22 | 32.19598 | -144.69321 | 36280 ft | 449 kts | 237° |
| 2026-05-05 00:23 | 32.15847 | -144.75214 | 36283 ft | 449 kts | 237° |
| 2026-05-05 00:23 | 32.12089 | -144.81107 | 36280 ft | 450 kts | 237° |
| 2026-05-05 00:24 | 32.08325 | -144.87002 | 36261 ft | 450 kts | 237° |
| 2026-05-05 00:24 | 32.04558 | -144.92892 | 36273 ft | 450 kts | 237° |
| 2026-05-05 00:25 | 32.00787 | -144.98779 | 36282 ft | 450 kts | 237° |
| 2026-05-05 00:25 | 31.97009 | -145.04667 | 36279 ft | 451 kts | 237° |
| 2026-05-05 00:26 | 31.93224 | -145.10558 | 36267 ft | 451 kts | 237° |
| 2026-05-05 00:26 | 31.89435 | -145.16447 | 36276 ft | 451 kts | 237° |
| 2026-05-05 00:27 | 31.85639 | -145.22335 | 36276 ft | 452 kts | 237° |
| 2026-05-05 00:27 | 31.81863 | -145.28185 | 36268 ft | 452 kts | 237° |
| 2026-05-05 00:28 | 31.78053 | -145.34080 | 36269 ft | 453 kts | 237° |
| 2026-05-05 00:28 | 31.74235 | -145.39976 | 36276 ft | 454 kts | 237° |
| 2026-05-05 00:29 | 31.70405 | -145.45881 | 36276 ft | 454 kts | 237° |
| 2026-05-05 00:29 | 31.67195 | -145.50824 | 36273 ft | 454 kts | 237° |
| 2026-05-05 00:30 | 31.63383 | -145.56686 | 36272 ft | 455 kts | 237° |
| 2026-05-05 00:30 | 31.59538 | -145.62590 | 36268 ft | 456 kts | 236° |
| 2026-05-05 00:31 | 31.55686 | -145.68495 | 36273 ft | 456 kts | 236° |
| 2026-05-05 00:31 | 31.51826 | -145.74403 | 36269 ft | 457 kts | 236° |
| 2026-05-05 00:32 | 31.47961 | -145.80309 | 36275 ft | 457 kts | 237° |
| 2026-05-05 00:32 | 31.44088 | -145.86220 | 36269 ft | 457 kts | 236° |
| 2026-05-05 00:33 | 31.40210 | -145.92129 | 36266 ft | 458 kts | 236° |
| 2026-05-05 00:33 | 31.36331 | -145.98030 | 36269 ft | 457 kts | 236° |
| 2026-05-05 00:34 | 31.32449 | -146.03927 | 36266 ft | 457 kts | 236° |
| 2026-05-05 00:34 | 31.28564 | -146.09819 | 36262 ft | 457 kts | 236° |
| 2026-05-05 00:35 | 31.24675 | -146.15707 | 36262 ft | 458 kts | 236° |
| 2026-05-05 00:35 | 31.20783 | -146.21594 | 36264 ft | 458 kts | 236° |
| 2026-05-05 00:36 | 31.16883 | -146.27481 | 36267 ft | 458 kts | 236° |
| 2026-05-05 00:36 | 31.12982 | -146.33364 | 36279 ft | 458 kts | 236° |
| 2026-05-05 00:37 | 31.09073 | -146.39247 | 36258 ft | 459 kts | 236° |
| 2026-05-05 00:37 | 31.05160 | -146.45128 | 36255 ft | 459 kts | 236° |
| 2026-05-05 00:38 | 31.01245 | -146.51004 | 36256 ft | 459 kts | 236° |
| 2026-05-05 00:38 | 30.97324 | -146.56879 | 36254 ft | 459 kts | 236° |
| 2026-05-05 00:39 | 30.93401 | -146.62750 | 36266 ft | 459 kts | 236° |
| 2026-05-05 00:39 | 30.89472 | -146.68619 | 36267 ft | 460 kts | 236° |
| 2026-05-05 00:40 | 30.85537 | -146.74490 | 36257 ft | 460 kts | 236° |
| 2026-05-05 00:40 | 30.81599 | -146.80357 | 36243 ft | 460 kts | 236° |
| 2026-05-05 00:41 | 30.77656 | -146.86220 | 36257 ft | 460 kts | 236° |
| 2026-05-05 00:41 | 30.73708 | -146.92084 | 36255 ft | 461 kts | 236° |
| 2026-05-05 00:42 | 30.69755 | -146.97946 | 36254 ft | 461 kts | 236° |
| 2026-05-05 00:42 | 30.65825 | -147.03765 | 36244 ft | 461 kts | 235° |
| 2026-05-05 00:43 | 30.61865 | -147.09620 | 36248 ft | 461 kts | 235° |
| 2026-05-05 00:43 | 30.57898 | -147.15477 | 36256 ft | 461 kts | 235° |
| 2026-05-05 00:44 | 30.53926 | -147.21333 | 36256 ft | 462 kts | 235° |
| 2026-05-05 00:44 | 30.49951 | -147.27185 | 36251 ft | 462 kts | 235° |
| 2026-05-05 00:45 | 30.45968 | -147.33039 | 36245 ft | 462 kts | 235° |
| 2026-05-05 00:45 | 30.41982 | -147.38889 | 36249 ft | 463 kts | 235° |
| 2026-05-05 00:46 | 30.37992 | -147.44737 | 36250 ft | 463 kts | 235° |
| 2026-05-05 00:46 | 30.33997 | -147.50583 | 36247 ft | 463 kts | 235° |
| 2026-05-05 00:47 | 30.30000 | -147.56424 | 36237 ft | 463 kts | 234° |
| 2026-05-05 00:47 | 30.25999 | -147.62261 | 36248 ft | 463 kts | 234° |
| 2026-05-05 00:48 | 30.21993 | -147.68098 | 36250 ft | 463 kts | 234° |
| 2026-05-05 00:48 | 30.17982 | -147.73935 | 36243 ft | 464 kts | 234° |
| 2026-05-05 00:49 | 30.13967 | -147.79767 | 36232 ft | 463 kts | 234° |
| 2026-05-05 00:49 | 30.09955 | -147.85588 | 36242 ft | 463 kts | 234° |
| 2026-05-05 00:50 | 30.05942 | -147.91403 | 36239 ft | 463 kts | 234° |
| 2026-05-05 00:50 | 30.01924 | -147.97217 | 36242 ft | 463 kts | 234° |
| 2026-05-05 00:51 | 29.97921 | -148.03048 | 36236 ft | 463 kts | 235° |
| 2026-05-05 00:51 | 29.94023 | -148.08890 | 36238 ft | 463 kts | 235° |
| 2026-05-05 00:52 | 29.90111 | -148.14780 | 36244 ft | 462 kts | 235° |
| 2026-05-05 00:52 | 29.86192 | -148.20654 | 36241 ft | 462 kts | 235° |
| 2026-05-05 00:53 | 29.82260 | -148.26524 | 36239 ft | 463 kts | 235° |
| 2026-05-05 00:53 | 29.78321 | -148.32392 | 36240 ft | 463 kts | 235° |
| 2026-05-05 00:54 | 29.74376 | -148.38259 | 36239 ft | 463 kts | 235° |
| 2026-05-05 00:54 | 29.70430 | -148.44122 | 36239 ft | 464 kts | 235° |
| 2026-05-05 00:55 | 29.66479 | -148.49982 | 36240 ft | 464 kts | 235° |
| 2026-05-05 00:55 | 29.62526 | -148.55838 | 36220 ft | 463 kts | 235° |
| 2026-05-05 00:56 | 29.58575 | -148.61681 | 36231 ft | 463 kts | 234° |
| 2026-05-05 00:56 | 29.54628 | -148.67511 | 36234 ft | 462 kts | 234° |
| 2026-05-05 00:57 | 29.50679 | -148.73336 | 36236 ft | 462 kts | 234° |
| 2026-05-05 00:57 | 29.46725 | -148.79159 | 36231 ft | 462 kts | 234° |
| 2026-05-05 00:58 | 29.42771 | -148.84975 | 36229 ft | 462 kts | 234° |
| 2026-05-05 00:58 | 29.38815 | -148.90783 | 36229 ft | 462 kts | 234° |
| 2026-05-05 00:59 | 29.34861 | -148.96582 | 36230 ft | 462 kts | 234° |
| 2026-05-05 00:59 | 29.30931 | -149.02339 | 36231 ft | 462 kts | 234° |
| 2026-05-05 00:59 | 29.28975 | -149.05192 | 37184 ft | 433 kts | 234° |
| 2026-05-05 01:00 | 29.27116 | -149.07894 | 36955 ft | 446 kts | 234° |
| 2026-05-05 01:00 | 29.25181 | -149.10725 | 36753 ft | 456 kts | 234° |
| 2026-05-05 01:00 | 29.23219 | -149.13599 | 36530 ft | 460 kts | 234° |
| 2026-05-05 01:00 | 29.21244 | -149.16488 | 36398 ft | 461 kts | 234° |
| 2026-05-05 01:01 | 29.19269 | -149.19371 | 36322 ft | 460 kts | 234° |
| 2026-05-05 01:01 | 29.15318 | -149.25126 | 36241 ft | 459 kts | 234° |
| 2026-05-05 01:02 | 29.11379 | -149.30854 | 36231 ft | 458 kts | 234° |
| 2026-05-05 01:02 | 29.07437 | -149.36579 | 36225 ft | 459 kts | 234° |
| 2026-05-05 01:03 | 29.03482 | -149.42316 | 36229 ft | 460 kts | 234° |
| 2026-05-05 01:03 | 28.99515 | -149.48063 | 36227 ft | 461 kts | 234° |
| 2026-05-05 01:04 | 28.95535 | -149.53819 | 36223 ft | 462 kts | 234° |
| 2026-05-05 01:04 | 28.89554 | -149.62454 | 36211 ft | 462 kts | 234° |
| 2026-05-05 01:05 | 28.85567 | -149.68201 | 36215 ft | 461 kts | 234° |
| 2026-05-05 01:05 | 28.81584 | -149.73933 | 36224 ft | 461 kts | 234° |
| 2026-05-05 01:06 | 28.77602 | -149.79658 | 36222 ft | 461 kts | 234° |
| 2026-05-05 01:06 | 28.73619 | -149.85375 | 36219 ft | 460 kts | 234° |
| 2026-05-05 01:07 | 28.69635 | -149.91087 | 36219 ft | 460 kts | 234° |
| 2026-05-05 01:07 | 28.65652 | -149.96788 | 36219 ft | 460 kts | 234° |
| 2026-05-05 01:08 | 28.61697 | -150.02443 | 36223 ft | 460 kts | 234° |
| 2026-05-05 01:08 | 28.57713 | -150.08131 | 36220 ft | 460 kts | 234° |
| 2026-05-05 01:09 | 28.53725 | -150.13817 | 36218 ft | 460 kts | 233° |
| 2026-05-05 01:09 | 28.49735 | -150.19497 | 36216 ft | 459 kts | 233° |
| 2026-05-05 01:10 | 28.45749 | -150.25165 | 36230 ft | 459 kts | 233° |
| 2026-05-05 01:10 | 28.41762 | -150.30827 | 36213 ft | 459 kts | 233° |
| 2026-05-05 01:11 | 28.37773 | -150.36484 | 36213 ft | 459 kts | 233° |
| 2026-05-05 01:11 | 28.33781 | -150.42137 | 36211 ft | 459 kts | 233° |
| 2026-05-05 01:12 | 28.29791 | -150.47781 | 36206 ft | 458 kts | 233° |
| 2026-05-05 01:12 | 28.25799 | -150.53419 | 36214 ft | 458 kts | 233° |
| 2026-05-05 01:13 | 28.21804 | -150.59054 | 36211 ft | 458 kts | 233° |
| 2026-05-05 01:13 | 28.17808 | -150.64684 | 36207 ft | 458 kts | 233° |
| 2026-05-05 01:14 | 28.13809 | -150.70309 | 36198 ft | 458 kts | 233° |
| 2026-05-05 01:14 | 28.09814 | -150.75922 | 36213 ft | 457 kts | 233° |
| 2026-05-05 01:15 | 28.05825 | -150.81519 | 36212 ft | 457 kts | 233° |
| 2026-05-05 01:15 | 28.01834 | -150.87111 | 36211 ft | 456 kts | 233° |
| 2026-05-05 01:16 | 27.97844 | -150.92697 | 36206 ft | 456 kts | 233° |
| 2026-05-05 01:16 | 27.93851 | -150.98277 | 36210 ft | 457 kts | 233° |
| 2026-05-05 01:17 | 27.89880 | -151.03820 | 36209 ft | 457 kts | 233° |
| 2026-05-05 01:17 | 27.85877 | -151.09401 | 36206 ft | 457 kts | 233° |
| 2026-05-05 01:18 | 27.81868 | -151.14981 | 36211 ft | 457 kts | 233° |
| 2026-05-05 01:18 | 27.78508 | -151.19654 | 36207 ft | 457 kts | 233° |
| 2026-05-05 01:19 | 27.74495 | -151.25228 | 36196 ft | 458 kts | 233° |
| 2026-05-05 01:19 | 27.70480 | -151.30797 | 36199 ft | 457 kts | 233° |
| 2026-05-05 01:20 | 27.66468 | -151.36354 | 36198 ft | 457 kts | 233° |
| 2026-05-05 01:20 | 27.62457 | -151.41904 | 36203 ft | 457 kts | 233° |
| 2026-05-05 01:21 | 27.58467 | -151.47418 | 36205 ft | 457 kts | 233° |
| 2026-05-05 01:21 | 27.54445 | -151.52967 | 36187 ft | 457 kts | 233° |
| 2026-05-05 01:22 | 27.50424 | -151.58509 | 36195 ft | 456 kts | 233° |
| 2026-05-05 01:22 | 27.46406 | -151.64041 | 36202 ft | 456 kts | 233° |
| 2026-05-05 01:23 | 27.42385 | -151.69568 | 36201 ft | 456 kts | 233° |
| 2026-05-05 01:23 | 27.38362 | -151.75092 | 36198 ft | 456 kts | 233° |
| 2026-05-05 01:24 | 27.34336 | -151.80613 | 36199 ft | 456 kts | 233° |
| 2026-05-05 01:24 | 27.30310 | -151.86127 | 36197 ft | 456 kts | 233° |
| 2026-05-05 01:25 | 27.26283 | -151.91635 | 36200 ft | 456 kts | 233° |
| 2026-05-05 01:25 | 27.22250 | -151.97144 | 36199 ft | 456 kts | 233° |
| 2026-05-05 01:26 | 27.18216 | -152.02647 | 36195 ft | 456 kts | 233° |
| 2026-05-05 01:26 | 27.14178 | -152.08149 | 36194 ft | 456 kts | 233° |
| 2026-05-05 01:27 | 27.10141 | -152.13643 | 36187 ft | 456 kts | 233° |
| 2026-05-05 01:27 | 27.06103 | -152.19132 | 36196 ft | 456 kts | 233° |
| 2026-05-05 01:28 | 27.02065 | -152.24615 | 36191 ft | 456 kts | 233° |
| 2026-05-05 01:28 | 26.98023 | -152.30095 | 36196 ft | 456 kts | 233° |
| 2026-05-05 01:29 | 26.93977 | -152.35573 | 36195 ft | 456 kts | 233° |
| 2026-05-05 01:29 | 26.89931 | -152.41046 | 36189 ft | 456 kts | 233° |
| 2026-05-05 01:30 | 26.85886 | -152.46510 | 36193 ft | 455 kts | 233° |
| 2026-05-05 01:30 | 26.81844 | -152.51963 | 36199 ft | 455 kts | 233° |
| 2026-05-05 01:31 | 26.77798 | -152.57415 | 36190 ft | 455 kts | 233° |
| 2026-05-05 01:31 | 26.73749 | -152.62865 | 36187 ft | 455 kts | 233° |
| 2026-05-05 01:32 | 26.71781 | -152.65600 | 35158 ft | 453 kts | 243° |
| 2026-05-05 01:32 | 26.69930 | -152.68430 | 35297 ft | 451 kts | 230° |
| 2026-05-05 01:32 | 26.67829 | -152.70940 | 35593 ft | 448 kts | 231° |
| 2026-05-05 01:32 | 26.65767 | -152.73555 | 35811 ft | 449 kts | 233° |
| 2026-05-05 01:33 | 26.63744 | -152.76225 | 35981 ft | 451 kts | 233° |
| 2026-05-05 01:33 | 26.61730 | -152.78931 | 36082 ft | 454 kts | 233° |
| 2026-05-05 01:33 | 26.57681 | -152.84398 | 36178 ft | 458 kts | 233° |
| 2026-05-05 01:34 | 26.53600 | -152.89882 | 36188 ft | 460 kts | 233° |
| 2026-05-05 01:34 | 26.49494 | -152.95374 | 36176 ft | 461 kts | 233° |
| 2026-05-05 01:35 | 26.45387 | -153.00851 | 36176 ft | 459 kts | 233° |
| 2026-05-05 01:35 | 26.41306 | -153.06287 | 36185 ft | 455 kts | 233° |
| 2026-05-05 01:36 | 26.37247 | -153.11689 | 36184 ft | 453 kts | 233° |
| 2026-05-05 01:36 | 26.33198 | -153.17073 | 36174 ft | 453 kts | 233° |
| 2026-05-05 01:37 | 26.29150 | -153.22451 | 36167 ft | 453 kts | 233° |
| 2026-05-05 01:37 | 26.25097 | -153.27827 | 36183 ft | 453 kts | 233° |
| 2026-05-05 01:38 | 26.21039 | -153.33204 | 36180 ft | 454 kts | 233° |
| 2026-05-05 01:38 | 26.16976 | -153.38581 | 36177 ft | 454 kts | 233° |
| 2026-05-05 01:39 | 26.12908 | -153.43957 | 36183 ft | 454 kts | 233° |
| 2026-05-05 01:39 | 26.08834 | -153.49335 | 36177 ft | 455 kts | 233° |
| 2026-05-05 01:40 | 26.04761 | -153.54706 | 36169 ft | 453 kts | 233° |
| 2026-05-05 01:40 | 26.00697 | -153.60057 | 36175 ft | 452 kts | 233° |
| 2026-05-05 01:41 | 25.96643 | -153.65390 | 36174 ft | 451 kts | 233° |
| 2026-05-05 01:41 | 25.92590 | -153.70716 | 36174 ft | 451 kts | 233° |
| 2026-05-05 01:42 | 25.88536 | -153.76036 | 36180 ft | 451 kts | 233° |
| 2026-05-05 01:42 | 25.84476 | -153.81359 | 36174 ft | 452 kts | 233° |
| 2026-05-05 01:43 | 25.80409 | -153.86685 | 36172 ft | 452 kts | 233° |
| 2026-05-05 01:43 | 25.76337 | -153.92009 | 36172 ft | 453 kts | 233° |
| 2026-05-05 01:44 | 25.72289 | -153.97298 | 36171 ft | 453 kts | 233° |
| 2026-05-05 01:44 | 25.68212 | -154.02617 | 36172 ft | 453 kts | 233° |
| 2026-05-05 01:45 | 25.64131 | -154.07936 | 36170 ft | 453 kts | 233° |
| 2026-05-05 01:45 | 25.60054 | -154.13242 | 36162 ft | 452 kts | 233° |
| 2026-05-05 01:46 | 25.55985 | -154.18533 | 36167 ft | 451 kts | 233° |
| 2026-05-05 01:46 | 25.51922 | -154.23810 | 36168 ft | 450 kts | 233° |
| 2026-05-05 01:47 | 25.47859 | -154.29082 | 36169 ft | 450 kts | 233° |
| 2026-05-05 01:47 | 25.43796 | -154.34347 | 36169 ft | 450 kts | 233° |
| 2026-05-05 01:48 | 25.39728 | -154.39613 | 36155 ft | 450 kts | 233° |
| 2026-05-05 01:48 | 25.35663 | -154.44869 | 36166 ft | 450 kts | 233° |
| 2026-05-05 01:49 | 25.31596 | -154.50120 | 36166 ft | 450 kts | 233° |
| 2026-05-05 01:49 | 25.27529 | -154.55367 | 36164 ft | 450 kts | 233° |
| 2026-05-05 01:50 | 25.23458 | -154.60613 | 36165 ft | 450 kts | 233° |
| 2026-05-05 01:50 | 25.19384 | -154.65857 | 36165 ft | 450 kts | 233° |
| 2026-05-05 01:51 | 25.15312 | -154.71093 | 36150 ft | 449 kts | 233° |
| 2026-05-05 01:51 | 25.11269 | -154.76284 | 36159 ft | 449 kts | 233° |
| 2026-05-05 01:52 | 25.07201 | -154.81502 | 36161 ft | 448 kts | 233° |
| 2026-05-05 01:52 | 25.03134 | -154.86714 | 36160 ft | 448 kts | 233° |
| 2026-05-05 01:53 | 24.99065 | -154.91923 | 36160 ft | 448 kts | 233° |
| 2026-05-05 01:53 | 24.94991 | -154.97132 | 36161 ft | 448 kts | 233° |
| 2026-05-05 01:54 | 24.90919 | -155.02333 | 36154 ft | 448 kts | 233° |
| 2026-05-05 01:54 | 24.86849 | -155.07525 | 36159 ft | 448 kts | 233° |
| 2026-05-05 01:55 | 24.82778 | -155.12714 | 36155 ft | 448 kts | 233° |
| 2026-05-05 01:55 | 24.78705 | -155.17900 | 36153 ft | 448 kts | 233° |
| 2026-05-05 01:56 | 24.74631 | -155.23082 | 36153 ft | 448 kts | 233° |
| 2026-05-05 01:56 | 24.70712 | -155.28380 | 36139 ft | 444 kts | 238° |
| 2026-05-05 01:57 | 24.67202 | -155.33963 | 36152 ft | 444 kts | 239° |
| 2026-05-05 01:57 | 24.63687 | -155.39538 | 36149 ft | 444 kts | 238° |
| 2026-05-05 01:58 | 24.60142 | -155.45125 | 36085 ft | 440 kts | 238° |
| 2026-05-05 01:58 | 24.58389 | -155.47881 | 35782 ft | 441 kts | 238° |
| 2026-05-05 01:58 | 24.56649 | -155.50617 | 35364 ft | 444 kts | 238° |
| 2026-05-05 01:59 | 24.54872 | -155.53407 | 34930 ft | 448 kts | 238° |
| 2026-05-05 01:59 | 24.53083 | -155.56216 | 34539 ft | 450 kts | 238° |
| 2026-05-05 01:59 | 24.51287 | -155.59032 | 34186 ft | 451 kts | 238° |
| 2026-05-05 01:59 | 24.49484 | -155.61858 | 33748 ft | 453 kts | 238° |
| 2026-05-05 02:00 | 24.47672 | -155.64696 | 33306 ft | 454 kts | 238° |
| 2026-05-05 02:00 | 24.45860 | -155.67532 | 32899 ft | 454 kts | 238° |
| 2026-05-05 02:00 | 24.44040 | -155.70379 | 32420 ft | 457 kts | 238° |
| 2026-05-05 02:00 | 24.42205 | -155.73250 | 31853 ft | 461 kts | 238° |
| 2026-05-05 02:01 | 24.40354 | -155.76144 | 31295 ft | 466 kts | 237° |
| 2026-05-05 02:01 | 24.38489 | -155.79057 | 30851 ft | 467 kts | 237° |
| 2026-05-05 02:01 | 24.36626 | -155.81964 | 30566 ft | 465 kts | 237° |
| 2026-05-05 02:01 | 24.34772 | -155.84852 | 30335 ft | 462 kts | 237° |
| 2026-05-05 02:02 | 24.32928 | -155.87727 | 30062 ft | 460 kts | 237° |
| 2026-05-05 02:02 | 24.31090 | -155.90590 | 29765 ft | 459 kts | 237° |
| 2026-05-05 02:02 | 24.29257 | -155.93444 | 29478 ft | 457 kts | 237° |
| 2026-05-05 02:02 | 24.27427 | -155.96292 | 29217 ft | 456 kts | 237° |
| 2026-05-05 02:03 | 24.25605 | -155.99128 | 28936 ft | 454 kts | 237° |
| 2026-05-05 02:03 | 24.23792 | -156.01945 | 28754 ft | 451 kts | 237° |
| 2026-05-05 02:03 | 24.21988 | -156.04748 | 28547 ft | 449 kts | 237° |
| 2026-05-05 02:03 | 24.20190 | -156.07540 | 28299 ft | 448 kts | 237° |
| 2026-05-05 02:04 | 24.17215 | -156.12158 | 28180 ft | 447 kts | 237° |
| 2026-05-05 02:04 | 24.13017 | -156.18668 | 28140 ft | 448 kts | 237° |
| 2026-05-05 02:05 | 24.10030 | -156.23293 | 28134 ft | 447 kts | 237° |
| 2026-05-05 02:05 | 24.06210 | -156.28614 | 28126 ft | 448 kts | 223° |
| 2026-05-05 02:06 | 24.03547 | -156.30424 | 28136 ft | 457 kts | 207° |
| 2026-05-05 02:06 | 24.00504 | -156.31488 | 28136 ft | 465 kts | 195° |
| 2026-05-05 02:06 | 23.97261 | -156.31743 | 28126 ft | 470 kts | 181° |
| 2026-05-05 02:06 | 23.93988 | -156.31492 | 28141 ft | 473 kts | 179° |
| 2026-05-05 02:07 | 23.87391 | -156.30904 | 28139 ft | 477 kts | 179° |
| 2026-05-05 02:07 | 23.80761 | -156.30365 | 28130 ft | 477 kts | 180° |
| 2026-05-05 02:08 | 23.77466 | -156.30120 | 28017 ft | 472 kts | 180° |
| 2026-05-05 02:08 | 23.74206 | -156.29888 | 27759 ft | 468 kts | 180° |
| 2026-05-05 02:08 | 23.70958 | -156.29663 | 27395 ft | 467 kts | 180° |
| 2026-05-05 02:08 | 23.67720 | -156.29441 | 27046 ft | 466 kts | 180° |
| 2026-05-05 02:09 | 23.64487 | -156.29220 | 26730 ft | 464 kts | 180° |
| 2026-05-05 02:09 | 23.61271 | -156.29000 | 26447 ft | 462 kts | 180° |
| 2026-05-05 02:09 | 23.58070 | -156.28779 | 26175 ft | 460 kts | 180° |
| 2026-05-05 02:09 | 23.54883 | -156.28559 | 25908 ft | 458 kts | 180° |
| 2026-05-05 02:10 | 23.51713 | -156.28340 | 25639 ft | 456 kts | 180° |
| 2026-05-05 02:10 | 23.48551 | -156.28122 | 25379 ft | 454 kts | 180° |
| 2026-05-05 02:10 | 23.45403 | -156.27905 | 25105 ft | 453 kts | 180° |
| 2026-05-05 02:10 | 23.42266 | -156.27689 | 24849 ft | 451 kts | 180° |
| 2026-05-05 02:11 | 23.39140 | -156.27473 | 24602 ft | 449 kts | 180° |
| 2026-05-05 02:11 | 23.36026 | -156.27258 | 24361 ft | 448 kts | 180° |
| 2026-05-05 02:11 | 23.32922 | -156.27044 | 24122 ft | 446 kts | 179° |
| 2026-05-05 02:11 | 23.29869 | -156.26834 | 23890 ft | 445 kts | 179° |
| 2026-05-05 02:12 | 23.26788 | -156.26622 | 23648 ft | 443 kts | 179° |
| 2026-05-05 02:12 | 23.20662 | -156.26201 | 23139 ft | 439 kts | 179° |
| 2026-05-05 02:12 | 23.17617 | -156.25991 | 22901 ft | 437 kts | 179° |
| 2026-05-05 02:13 | 23.14587 | -156.25783 | 22664 ft | 436 kts | 179° |
| 2026-05-05 02:13 | 23.11568 | -156.25576 | 22410 ft | 434 kts | 179° |
| 2026-05-05 02:13 | 23.08560 | -156.25369 | 22168 ft | 432 kts | 179° |
| 2026-05-05 02:13 | 23.05559 | -156.25164 | 21934 ft | 431 kts | 179° |
| 2026-05-05 02:14 | 23.02575 | -156.24959 | 21705 ft | 429 kts | 179° |
| 2026-05-05 02:14 | 22.99602 | -156.24755 | 21490 ft | 427 kts | 179° |
| 2026-05-05 02:14 | 22.96645 | -156.24552 | 21272 ft | 425 kts | 179° |
| 2026-05-05 02:14 | 22.93695 | -156.24350 | 21054 ft | 424 kts | 179° |
| 2026-05-05 02:15 | 22.90756 | -156.24149 | 20829 ft | 422 kts | 179° |
| 2026-05-05 02:15 | 22.87831 | -156.23949 | 20609 ft | 421 kts | 179° |
| 2026-05-05 02:15 | 22.84913 | -156.23749 | 20395 ft | 419 kts | 179° |
| 2026-05-05 02:15 | 22.82006 | -156.23551 | 20167 ft | 418 kts | 178° |
| 2026-05-05 02:16 | 22.79109 | -156.23353 | 19973 ft | 416 kts | 178° |
| 2026-05-05 02:16 | 22.76223 | -156.23156 | 19766 ft | 415 kts | 178° |
| 2026-05-05 02:16 | 22.73344 | -156.22960 | 19569 ft | 414 kts | 178° |
| 2026-05-05 02:16 | 22.70481 | -156.22766 | 19372 ft | 412 kts | 178° |
| 2026-05-05 02:17 | 22.67622 | -156.22573 | 19173 ft | 411 kts | 178° |
| 2026-05-05 02:17 | 22.64774 | -156.22380 | 18986 ft | 410 kts | 178° |
| 2026-05-05 02:17 | 22.61934 | -156.22188 | 18791 ft | 408 kts | 178° |
| 2026-05-05 02:17 | 22.59128 | -156.21998 | 18611 ft | 404 kts | 178° |
| 2026-05-05 02:18 | 22.56484 | -156.21820 | 18287 ft | 407 kts | 178° |
| 2026-05-05 02:19 | 22.54719 | -156.21701 | 18140 ft | 406 kts | 178° |
| 2026-05-05 02:19 | 22.51869 | -156.21508 | 17984 ft | 404 kts | 178° |
| 2026-05-05 02:20 | 22.49079 | -156.21318 | 17832 ft | 401 kts | 178° |
| 2026-05-05 02:20 | 22.46303 | -156.21130 | 17643 ft | 399 kts | 178° |
| 2026-05-05 02:20 | 22.43568 | -156.20945 | 17414 ft | 399 kts | 178° |
| 2026-05-05 02:20 | 22.40801 | -156.20759 | 17230 ft | 398 kts | 178° |
| 2026-05-05 02:21 | 22.38042 | -156.20573 | 17037 ft | 397 kts | 178° |
| 2026-05-05 02:21 | 22.35288 | -156.20387 | 16853 ft | 396 kts | 178° |
| 2026-05-05 02:21 | 22.32543 | -156.20202 | 16676 ft | 395 kts | 178° |
| 2026-05-05 02:21 | 22.29806 | -156.20018 | 16486 ft | 394 kts | 179° |
| 2026-05-05 02:22 | 22.27072 | -156.19833 | 16316 ft | 393 kts | 178° |
| 2026-05-05 02:22 | 22.25441 | -156.22151 | 16266 ft | 0 kts | 178° |
| 2026-05-05 02:23 | 22.25238 | -156.22146 | 16266 ft | 0 kts | 178° |
| 2026-05-05 02:23 | 22.25273 | -156.20680 | 16266 ft | 0 kts | 178° |
| 2026-05-05 02:25 | 22.23318 | -156.20607 | 16209 ft | 390 kts | 179° |
| 2026-05-05 02:26 | 22.22164 | -156.20551 | 16211 ft | 390 kts | 179° |
| 2026-05-05 02:26 | 22.20399 | -156.20457 | 16217 ft | 390 kts | 179° |
| 2026-05-05 02:28 | 22.18667 | -156.20359 | 16218 ft | 391 kts | 179° |
| 2026-05-05 02:28 | 22.18494 | -156.20349 | 16218 ft | 391 kts | 179° |
| 2026-05-05 02:30 | 22.16557 | -156.20237 | 16213 ft | 392 kts | 179° |
| 2026-05-05 02:30 | 22.13828 | -156.20076 | 16211 ft | 393 kts | 179° |
| 2026-05-05 02:31 | 22.11099 | -156.19914 | 16207 ft | 393 kts | 179° |
| 2026-05-05 02:31 | 22.09211 | -156.19802 | 16206 ft | 393 kts | 179° |
| 2026-05-05 02:34 | 22.08515 | -156.19760 | 16207 ft | 393 kts | 179° |
| 2026-05-05 02:34 | 22.05818 | -156.19600 | 16204 ft | 393 kts | 179° |
| 2026-05-05 02:34 | 22.03091 | -156.19437 | 16180 ft | 393 kts | 179° |
| 2026-05-05 02:34 | 22.00353 | -156.19274 | 15801 ft | 395 kts | 179° |
| 2026-05-05 02:35 | 21.97602 | -156.19111 | 15281 ft | 395 kts | 179° |
| 2026-05-05 02:35 | 21.94897 | -156.18949 | 15161 ft | 382 kts | 179° |
| 2026-05-05 02:35 | 21.92271 | -156.18790 | 15146 ft | 377 kts | 179° |
| 2026-05-05 02:35 | 21.89624 | -156.18633 | 15115 ft | 385 kts | 178° |
| 2026-05-05 02:36 | 21.86931 | -156.18475 | 15112 ft | 388 kts | 179° |
| 2026-05-05 02:36 | 21.84244 | -156.18315 | 15105 ft | 386 kts | 179° |
| 2026-05-05 02:36 | 21.81571 | -156.18155 | 15102 ft | 384 kts | 179° |
| 2026-05-05 02:36 | 21.78907 | -156.17996 | 15103 ft | 383 kts | 179° |
| 2026-05-05 02:37 | 21.76250 | -156.17838 | 15108 ft | 382 kts | 179° |
| 2026-05-05 02:37 | 21.73591 | -156.17680 | 15108 ft | 383 kts | 179° |
| 2026-05-05 02:37 | 21.70929 | -156.17522 | 15104 ft | 384 kts | 179° |
| 2026-05-05 02:37 | 21.68258 | -156.17363 | 15108 ft | 385 kts | 179° |
| 2026-05-05 02:38 | 21.65582 | -156.17204 | 15109 ft | 386 kts | 179° |
| 2026-05-05 02:38 | 21.62900 | -156.17045 | 15097 ft | 387 kts | 178° |
| 2026-05-05 02:38 | 21.60209 | -156.16885 | 14895 ft | 388 kts | 179° |
| 2026-05-05 02:38 | 21.57518 | -156.16725 | 14621 ft | 386 kts | 178° |
| 2026-05-05 02:39 | 21.54844 | -156.16566 | 14342 ft | 383 kts | 179° |
| 2026-05-05 02:39 | 21.52194 | -156.16409 | 14063 ft | 380 kts | 178° |
| 2026-05-05 02:39 | 21.49556 | -156.16252 | 13749 ft | 379 kts | 179° |
| 2026-05-05 02:39 | 21.46934 | -156.16095 | 13424 ft | 377 kts | 180° |
| 2026-05-05 02:40 | 21.44313 | -156.15940 | 13051 ft | 377 kts | 179° |
| 2026-05-05 02:40 | 21.41696 | -156.15787 | 12679 ft | 377 kts | 178° |
| 2026-05-05 02:40 | 21.39082 | -156.15635 | 12314 ft | 376 kts | 178° |
| 2026-05-05 02:40 | 21.36469 | -156.15481 | 11945 ft | 375 kts | 179° |
| 2026-05-05 02:41 | 21.33865 | -156.15328 | 11588 ft | 374 kts | 178° |
| 2026-05-05 02:41 | 21.31276 | -156.15175 | 11231 ft | 372 kts | 178° |
| 2026-05-05 02:41 | 21.28700 | -156.15023 | 10879 ft | 370 kts | 178° |
| 2026-05-05 02:41 | 21.26132 | -156.14871 | 10530 ft | 368 kts | 178° |
| 2026-05-05 02:42 | 21.23582 | -156.14720 | 10187 ft | 366 kts | 177° |
| 2026-05-05 02:42 | 21.21040 | -156.14570 | 9832 ft | 365 kts | 177° |
| 2026-05-05 02:42 | 21.18549 | -156.14424 | 9453 ft | 363 kts | 177° |
| 2026-05-05 02:42 | 21.16039 | -156.14276 | 9092 ft | 359 kts | 177° |
| 2026-05-05 02:43 | 21.13584 | -156.14284 | 9003 ft | 354 kts | 189° |
| 2026-05-05 02:43 | 21.11253 | -156.15165 | 9016 ft | 358 kts | 208° |
| 2026-05-05 02:43 | 21.09214 | -156.16671 | 9007 ft | 356 kts | 220° |
| 2026-05-05 02:43 | 21.07400 | -156.18465 | 9005 ft | 354 kts | 225° |
| 2026-05-05 02:44 | 21.05714 | -156.20311 | 8884 ft | 332 kts | 226° |
| 2026-05-05 02:44 | 21.04187 | -156.22002 | 8695 ft | 301 kts | 225° |
| 2026-05-05 02:44 | 21.02775 | -156.23555 | 8356 ft | 282 kts | 225° |
| 2026-05-05 02:44 | 21.01373 | -156.24923 | 7999 ft | 265 kts | 217° |
| 2026-05-05 02:45 | 20.99910 | -156.26033 | 7689 ft | 251 kts | 213° |
| 2026-05-05 02:45 | 20.98480 | -156.27068 | 7365 ft | 246 kts | 213° |
| 2026-05-05 02:45 | 20.97045 | -156.28113 | 7084 ft | 252 kts | 214° |
| 2026-05-05 02:45 | 20.95599 | -156.29183 | 6783 ft | 253 kts | 214° |
| 2026-05-05 02:46 | 20.94150 | -156.30263 | 6446 ft | 255 kts | 214° |
| 2026-05-05 02:46 | 20.92692 | -156.31364 | 6083 ft | 258 kts | 214° |
| 2026-05-05 02:46 | 20.91254 | -156.32453 | 5684 ft | 247 kts | 214° |
| 2026-05-05 02:46 | 20.89869 | -156.33503 | 5312 ft | 245 kts | 213° |
| 2026-05-05 02:47 | 20.88467 | -156.34536 | 5016 ft | 242 kts | 212° |
| 2026-05-05 02:47 | 20.87064 | -156.35488 | 5010 ft | 237 kts | 210° |
| 2026-05-05 02:47 | 20.85661 | -156.36405 | 4994 ft | 238 kts | 208° |
| 2026-05-05 02:47 | 20.84217 | -156.37316 | 4930 ft | 244 kts | 209° |
| 2026-05-05 02:48 | 20.82750 | -156.38274 | 4727 ft | 248 kts | 210° |
| 2026-05-05 02:48 | 20.81291 | -156.39225 | 4512 ft | 243 kts | 209° |
| 2026-05-05 02:48 | 20.79856 | -156.40144 | 4310 ft | 238 kts | 208° |
| 2026-05-05 02:48 | 20.78444 | -156.41072 | 4111 ft | 239 kts | 210° |
| 2026-05-05 02:49 | 20.77042 | -156.42015 | 3918 ft | 238 kts | 210° |
| 2026-05-05 02:49 | 20.75641 | -156.42922 | 3728 ft | 233 kts | 208° |
| 2026-05-05 02:49 | 20.74265 | -156.43799 | 3512 ft | 228 kts | 205° |
| 2026-05-05 02:49 | 20.72887 | -156.44572 | 3334 ft | 219 kts | 202° |
| 2026-05-05 02:50 | 20.71631 | -156.45428 | 3092 ft | 215 kts | 226° |
| 2026-05-05 02:50 | 20.71030 | -156.46813 | 3024 ft | 206 kts | 267° |
| 2026-05-05 02:50 | 20.71308 | -156.48279 | 3012 ft | 201 kts | 303° |
| 2026-05-05 02:50 | 20.71993 | -156.49563 | 3017 ft | 199 kts | 306° |
| 2026-05-05 02:51 | 20.72680 | -156.50835 | 2993 ft | 196 kts | 305° |
| 2026-05-05 02:51 | 20.73345 | -156.52070 | 2984 ft | 193 kts | 307° |
| 2026-05-05 02:51 | 20.74207 | -156.53078 | 2987 ft | 181 kts | 341° |
| 2026-05-05 02:51 | 20.75391 | -156.53219 | 3002 ft | 171 kts | 23° |
| 2026-05-05 02:52 | 20.76430 | -156.52648 | 2974 ft | 169 kts | 31° |
| 2026-05-05 02:52 | 20.77509 | -156.52037 | 2747 ft | 180 kts | 30° |
| 2026-05-05 02:52 | 20.78575 | -156.51338 | 2510 ft | 179 kts | 34° |
| 2026-05-05 02:52 | 20.79574 | -156.50607 | 2306 ft | 169 kts | 36° |
| 2026-05-05 02:53 | 20.80527 | -156.49895 | 2059 ft | 164 kts | 35° |
| 2026-05-05 02:53 | 20.81407 | -156.49238 | 1859 ft | 146 kts | 34° |
| 2026-05-05 02:53 | 20.81934 | -156.48844 | 1739 ft | 134 kts | 34° |
| 2026-05-05 02:53 | 20.82942 | -156.48091 | 1507 ft | 126 kts | 34° |
| 2026-05-05 02:54 | 20.83415 | -156.47739 | 1430 ft | 129 kts | 35° |
| 2026-05-05 02:54 | 20.84174 | -156.47170 | 1221 ft | 127 kts | 33° |
| 2026-05-05 02:54 | 20.84899 | -156.46629 | 1044 ft | 129 kts | 34° |
| 2026-05-05 02:54 | 20.85626 | -156.46087 | 889 ft | 130 kts | 32° |
| 2026-05-05 02:55 | 20.86351 | -156.45543 | 713 ft | 120 kts | 29° |
| 2026-05-05 02:55 | 20.87060 | -156.45011 | 575 ft | 125 kts | 36° |
| 2026-05-05 02:55 | 20.87731 | -156.44501 | 363 ft | 112 kts | 31° |
| 2026-05-05 02:55 | 20.88390 | -156.44023 | 237 ft | 128 kts | 34° |
| 2026-05-05 02:56 | 20.89100 | -156.43498 | 56 ft | 117 kts | 35° |
| 2026-05-05 02:56 | 20.89680 | -156.43064 | 48 ft | 81 kts | 34° |
| 2026-05-05 02:56 | 20.90012 | -156.42816 | 48 ft | 50 kts | 35° |
| 2026-05-05 02:56 | 20.90270 | -156.42625 | 48 ft | 41 kts | 34° |
| 2026-05-05 02:57 | 20.90436 | -156.42510 | 51 ft | 19 kts | 18° |
| 2026-05-05 02:57 | 20.90480 | -156.42582 | 50 ft | 14 kts | 246° |
| 2026-05-05 02:57 | 20.90446 | -156.42648 | 48 ft | 9 kts | 236° |
| 2026-05-05 02:57 | 20.90399 | -156.42695 | 50 ft | 9 kts | 217° |
| 2026-05-05 02:58 | 20.90344 | -156.42731 | 46 ft | 9 kts | 210° |
| 2026-05-05 02:58 | 20.90267 | -156.42783 | 48 ft | 19 kts | 213° |
| 2026-05-05 02:58 | 20.90162 | -156.42864 | 48 ft | 19 kts | 216° |
| 2026-05-05 02:58 | 20.90055 | -156.42943 | 48 ft | 19 kts | 215° |
| 2026-05-05 02:59 | 20.89949 | -156.43023 | 48 ft | 19 kts | 215° |
| 2026-05-05 02:59 | 20.89842 | -156.43102 | 49 ft | 19 kts | 216° |
| 2026-05-05 02:59 | 20.89737 | -156.43182 | 48 ft | 19 kts | 214° |
| 2026-05-05 02:59 | 20.89630 | -156.43261 | 49 ft | 19 kts | 214° |
| 2026-05-05 03:00 | 20.89524 | -156.43339 | 47 ft | 19 kts | 214° |
| 2026-05-05 03:00 | 20.89418 | -156.43419 | 66 ft | 19 kts | 214° |
| 2026-05-05 03:00 | 20.89311 | -156.43498 | 67 ft | 19 kts | 215° |
| 2026-05-05 03:00 | 20.89205 | -156.43577 | 64 ft | 19 kts | 215° |
| 2026-05-05 03:01 | 20.89110 | -156.43657 | 64 ft | 14 kts | 237° |
| 2026-05-05 03:01 | 20.89127 | -156.43740 | 66 ft | 6 kts | 304° |
| 2026-05-05 03:01 | 20.89142 | -156.43763 | 64 ft | 2 kts | 304° |
| 2026-05-05 03:01 | 20.89145 | -156.43767 | 65 ft | 0 kts | 305° |
| 2026-05-05 03:02 | 20.89147 | -156.43771 | 65 ft | 1 kts | 305° |
| 2026-05-05 03:02 | 20.89149 | -156.43774 | 65 ft | 0 kts | 305° |
| 2026-05-05 03:02 | 20.89151 | -156.43777 | 66 ft | 0 kts | 305° |
| 2026-05-05 03:02 | 20.89152 | -156.43778 | 66 ft | 1 kts | 305° |